# Opmerking: door stationsverplaatsingen en veranderingen in waarneemmethodieken zijn deze tijdreeksen van uurwaarden mogelijk inhomogeen! Dat betekent dat deze reeks van gemeten waarden niet geschikt is voor trendanalyse. Voor studies naar klimaatverandering verwijzen we naar de gehomogeniseerde dagreeksen <http://www.knmi.nl/nederland-nu/klimatologie/daggegevens> of de Centraal Nederland Temperatuur <http://www.knmi.nl/kennis-en-datacentrum/achtergrond/centraal-nederland-temperatuur-cnt>.
#
# SOURCE: ROYAL NETHERLANDS METEOROLOGICAL INSTITUTE (KNMI)
# Comment: These time series are inhomogeneous because of station relocations and changes in observation techniques. As a result these series are not suitable for trend analysis. For climate change studies we refer to the homogenized series of daily data <http://www.knmi.nl/nederland-nu/klimatologie/daggegevens> or the Central Netherlands Temperature <http://www.knmi.nl/kennis-en-datacentrum/achtergrond/centraal-nederland-temperatuur-cnt>.
#
# STN         LON(east)   LAT(north)  ALT(m)      NAME
# 348         4.926       51.970      -0.70       Cabauw Mast
# FG        : Etmaalgemiddelde windsnelheid (in 0.1 m/s) / Daily mean windspeed (in 0.1 m/s)
# TG        : Etmaalgemiddelde temperatuur (in 0.1 graden Celsius) / Daily mean temperature in (0.1 degrees Celsius)
# PG        : Etmaalgemiddelde luchtdruk herleid tot zeeniveau (in 0.1 hPa) berekend uit 24 uurwaarden / Daily mean sea level pressure (in 0.1 hPa) calculated from 24 hourly values
# UG        : Etmaalgemiddelde relatieve vochtigheid (in procenten) / Daily mean relative atmospheric humidity (in percents)
# STN,YYYYMMDD,   FG,   TG,   PG,   UG
  348,20200101,   31,   18,10317,   98
  348,20200102,   48,   41,10237,   97
  348,20200103,   64,   74,10191,   91
  348,20200104,   49,   65,10301,   91
  348,20200105,   40,   66,10331,   91
  348,20200106,   49,   58,10240,   86
  348,20200107,   57,   61,10239,   95
  348,20200108,   54,  101,10215,   97
  348,20200109,   67,  115,10104,   94
  348,20200110,   40,   61,10202,   91
  348,20200111,   64,   57,10276,   84
  348,20200112,   71,   73,10195,   88
  348,20200113,   63,   75,10135,   90
  348,20200114,  100,  105,10027,   87
  348,20200115,   75,   91,10106,   82
  348,20200116,   50,   69,10213,   89
  348,20200117,   65,   80,10145,   83
  348,20200118,   43,   41,10248,   88
  348,20200119,   30,   36,10404,   88
  348,20200120,   20,   27,10468,   97
  348,20200121,   28,    7,10416,   99
  348,20200122,   20,   42,10369,   99
  348,20200123,   17,   42,10312,   95
  348,20200124,   26,   25,10236,   96
  348,20200125,   35,   20,10211,   95
  348,20200126,   45,   56,10138,   92
  348,20200127,   56,   81,10022,   93
  348,20200128,   82,   51, 9937,   85
  348,20200129,   70,   59,10065,   80
  348,20200130,   76,   82,10053,   92
  348,20200131,   84,  108,10067,   91
  348,20200201,   86,  103,10039,   85
  348,20200202,   65,   89,10074,   90
  348,20200203,   68,   90,10102,   86
  348,20200204,   65,   52,10163,   86
  348,20200205,   20,   46,10350,   86
  348,20200206,   19,   45,10318,   91
  348,20200207,   40,   41,10243,   80
  348,20200208,   48,   70,10179,   89
  348,20200209,  138,   97, 9984,   85
  348,20200210,  128,   79, 9939,   72
  348,20200211,  116,   60,10033,   62
  348,20200212,   77,   48,10125,   73
  348,20200213,   57,   57,10016,   91
  348,20200214,   48,   71,10179,   83
  348,20200215,   88,  104,10127,   79
  348,20200216,  129,  119, 9995,   82
  348,20200217,  101,   77,10107,   78
  348,20200218,   95,   73,10173,   79
  348,20200219,   71,   63,10174,   80
  348,20200220,   93,   81,10124,   83
  348,20200221,   81,   69,10223,   78
  348,20200222,  111,   90,10175,   83
  348,20200223,   98,   86,10147,   86
  348,20200224,   85,   75,10109,   90
  348,20200225,   68,   59, 9980,   79
  348,20200226,   50,   31, 9995,   89
  348,20200227,   39,   28,10021,   90
  348,20200228,   65,   43,10096,   88
  348,20200229,   99,   84, 9901,   79
  348,20200301,   88,   59, 9911,   79
  348,20200302,   41,   53, 9905,   93
  348,20200303,   44,   41,10023,   86
  348,20200304,   39,   67,10087,   83
  348,20200305,   50,   58, 9945,   91
  348,20200306,   51,   65, 9999,   84
  348,20200307,   53,   67,10161,   81
  348,20200308,   75,   85,10091,   86
  348,20200309,   59,   75,10109,   86
  348,20200310,  105,  101,10037,   95
  348,20200311,   65,  109,10091,   90
  348,20200312,  109,   83,10086,   70
  348,20200313,   62,   65,10165,   84
  348,20200314,   49,   70,10184,   85
  348,20200315,   56,   93,10123,   83
  348,20200316,   23,   72,10204,   87
  348,20200317,   45,   72,10283,   79
  348,20200318,   46,   95,10256,   75
  348,20200319,   28,   85,10258,   91
  348,20200320,   50,   67,10278,   79
  348,20200321,   63,   51,10286,   62
  348,20200322,   60,   47,10305,   54
  348,20200323,   56,   47,10317,   46
  348,20200324,   42,   54,10301,   45
  348,20200325,   38,   62,10266,   42
  348,20200326,   46,   68,10234,   43
  348,20200327,   46,   79,10212,   61
  348,20200328,   69,   70,10253,   70
  348,20200329,   78,   44,10323,   56
  348,20200330,   30,   35,10308,   81
  348,20200331,   36,   38,10304,   68
  348,20200401,   18,   35,10221,   80
  348,20200402,   47,   69,10134,   79
  348,20200403,   38,   65,10169,   77
  348,20200404,   34,   83,10233,   57
  348,20200405,   50,  129,10192,   50
  348,20200406,   46,  134,10197,   64
  348,20200407,   27,  125,10298,   67
  348,20200408,   18,  150,10246,   69
  348,20200409,   31,  131,10260,   71
  348,20200410,   31,  118,10268,   63
  348,20200411,   20,  127,10232,   58
  348,20200412,   25,  141,10153,   71
  348,20200413,   70,   77,10237,   60
  348,20200414,   30,   65,10275,   70
  348,20200415,   15,   87,10235,   71
  348,20200416,   30,  126,10170,   65
  348,20200417,   45,  108,10176,   67
  348,20200418,   28,  106,10164,   79
  348,20200419,   48,  128,10189,   48
  348,20200420,   67,  130,10191,   40
  348,20200421,   65,  142,10183,   41
  348,20200422,   53,  148,10202,   46
  348,20200423,   26,  148,10189,   57
  348,20200424,   39,  122,10145,   71
  348,20200425,   31,   92,10148,   72
  348,20200426,   16,   90,10122,   79
  348,20200427,   27,  123,10076,   71
  348,20200428,   33,   96,10044,   92
  348,20200429,   45,  118,10031,   86
  348,20200430,   64,  114, 9985,   74
  348,20200501,   64,  105, 9994,   81
  348,20200502,   48,  102,10094,   78
  348,20200503,   26,  122,10170,   78
  348,20200504,   43,  111,10199,   76
  348,20200505,   40,   93,10227,   66
  348,20200506,   27,  108,10259,   64
  348,20200507,   15,  128,10234,   67
  348,20200508,   15,  154,10182,   64
  348,20200509,   32,  175,10123,   58
  348,20200510,   56,  131,10082,   73
  348,20200511,   80,   81,10161,   56
  348,20200512,   26,   75,10187,   70
  348,20200513,   44,   73,10152,   71
  348,20200514,   35,   73,10212,   65
  348,20200515,   25,   89,10231,   71
  348,20200516,   39,  101,10230,   75
  348,20200517,   34,  125,10236,   69
  348,20200518,   39,  145,10227,   69
  348,20200519,   34,  157,10224,   74
  348,20200520,   20,  168,10231,   73
  348,20200521,   20,  199,10205,   63
  348,20200522,   61,  186,10170,   62
  348,20200523,   78,  148,10221,   67
  348,20200524,   49,  135,10288,   83
  348,20200525,   34,  154,10341,   76
  348,20200526,   21,  160,10352,   72
  348,20200527,   41,  154,10345,   72
  348,20200528,   43,  141,10337,   63
  348,20200529,   38,  152,10280,   63
  348,20200530,   38,  178,10238,   52
  348,20200531,   43,  173,10232,   53
  348,20200601,   35,  186,10220,   59
  348,20200602,   23,  188,10159,   65
  348,20200603,   41,  165,10051,   77
  348,20200604,   51,  126, 9984,   82
  348,20200605,   53,   98, 9944,   85
  348,20200606,   80,  114, 9985,   74
  348,20200607,   51,  126,10071,   83
  348,20200608,   42,  140,10149,   78
  348,20200609,   30,  129,10193,   70
  348,20200610,   22,  140,10160,   76
  348,20200611,   27,  157,10113,   80
  348,20200612,   38,  191,10075,   76
  348,20200613,   24,  204,10108,   75
  348,20200614,   28,  178,10145,   86
  348,20200615,   22,  190,10165,   75
  348,20200616,   15,  178,10151,   87
  348,20200617,   33,  194,10116,   79
  348,20200618,   29,  175,10111,   83
  348,20200619,   31,  171,10161,   79
  348,20200620,   23,  164,10210,   76
  348,20200621,   42,  187,10191,   71
  348,20200622,   26,  174,10250,   71
  348,20200623,   18,  199,10251,   67
  348,20200624,   33,  236,10221,   53
  348,20200625,   41,  241,10176,   56
  348,20200626,   33,  237,10110,   66
  348,20200627,   48,  201,10086,   81
  348,20200628,   69,  173,10115,   65
  348,20200629,   78,  157,10105,   66
  348,20200630,   68,  160,10079,   86
  348,20200701,   59,  178,10063,   80
  348,20200702,   48,  171,10110,   78
  348,20200703,   63,  173,10158,   74
  348,20200704,   84,  166,10125,   92
  348,20200705,   95,  177,10101,   79
  348,20200706,   61,  144,10168,   74
  348,20200707,   35,  150,10192,   78
  348,20200708,   27,  153,10151,   93
  348,20200709,   58,  170,10117,   93
  348,20200710,   44,  147,10146,   82
  348,20200711,   28,  138,10250,   81
  348,20200712,   18,  152,10281,   71
  348,20200713,   15,  173,10226,   68
  348,20200714,   27,  156,10151,   87
  348,20200715,   22,  160,10151,   77
  348,20200716,   37,  165,10176,   85
  348,20200717,   15,  180,10208,   84
  348,20200718,   23,  193,10183,   82
  348,20200719,   30,  173,10166,   84
  348,20200720,   36,  156,10214,   73
  348,20200721,   29,  144,10248,   72
  348,20200722,   21,  149,10235,   73
  348,20200723,   34,  182,10162,   66
  348,20200724,   35,  184,10121,   79
  348,20200725,   46,  181,10096,   89
  348,20200726,   50,  183,10111,   76
  348,20200727,   43,  184,10105,   77
  348,20200728,   52,  175,10125,   70
  348,20200729,   37,  159,10199,   70
  348,20200730,   22,  192,10201,   64
  348,20200731,   35,  249,10150,   52
  348,20200801,   33,  202,10144,   82
  348,20200802,   33,  169,10154,   78
  348,20200803,   24,  152,10146,   82
  348,20200804,   22,  162,10168,   69
  348,20200805,   36,  203,10153,   64
  348,20200806,   17,  225,10187,   65
  348,20200807,   19,  258,10192,   54
  348,20200808,   21,  259,10192,   59
  348,20200809,   30,  266,10169,   59
  348,20200810,   28,  263,10148,   58
  348,20200811,   28,  265,10146,   62
  348,20200812,   29,  264,10134,   65
  348,20200813,   20,  246,10113,   76
  348,20200814,   27,  225,10126,   82
  348,20200815,   16,  225,10143,   80
  348,20200816,   27,  222,10105,   82
  348,20200817,   23,  196,10093,   85
  348,20200818,   32,  187,10105,   81
  348,20200819,   38,  214,10075,   74
  348,20200820,   38,  233,10057,   79
  348,20200821,   52,  232,10076,   66
  348,20200822,   67,  187,10135,   76
  348,20200823,   56,  175,10149,   80
  348,20200824,   45,  166,10147,   79
  348,20200825,   67,  172,10060,   82
  348,20200826,   88,  165,10089,   82
  348,20200827,   26,  165,10125,   85
  348,20200828,   52,  158,10002,   85
  348,20200829,   41,  145,10036,   89
  348,20200830,   51,  152,10116,   86
  348,20200831,   24,  143,10199,   76
  348,20200901,   19,  134,10201,   82
  348,20200902,   16,  148,10192,   79
  348,20200903,   54,  167,10170,   89
  348,20200904,   39,  168,10197,   83
  348,20200905,   39,  148,10188,   80
  348,20200906,   29,  143,10201,   80
  348,20200907,   35,  154,10232,   81
  348,20200908,   40,  170,10243,   91
  348,20200909,   40,  168,10217,   92
  348,20200910,    9,  138,10221,   80
  348,20200911,   17,  140,10171,   83
  348,20200912,   35,  144,10197,   87
  348,20200913,   29,  163,10247,   87
  348,20200914,   19,  201,10229,   74
  348,20200915,   16,  225,10184,   71
  348,20200916,   45,  180,10222,   82
  348,20200917,   39,  139,10283,   67
  348,20200918,   43,  149,10238,   60
  348,20200919,   34,  161,10182,   59
  348,20200920,   31,  152,10178,   63
  348,20200921,   18,  150,10160,   75
  348,20200922,   13,  143,10098,   79
  348,20200923,   46,  162,10023,   87
  348,20200924,   63,  135, 9991,   81
  348,20200925,   68,  108, 9930,   88
  348,20200926,   43,  129, 9990,   82
  348,20200927,   44,  143,10032,   87
  348,20200928,   26,  130,10090,   98
  348,20200929,   23,  154,10150,   85
  348,20200930,   34,  154,10117,   91
  348,20201001,   46,  131, 9998,   93
  348,20201002,   47,  131, 9932,   84
  348,20201003,   37,  126, 9887,   93
  348,20201004,   70,  119, 9896,   82
  348,20201005,   69,  121, 9964,   88
  348,20201006,   65,  127, 9977,   89
  348,20201007,   46,  122,10105,   89
  348,20201008,   67,  132,10121,   92
  348,20201009,   34,  116,10171,   87
  348,20201010,   40,   79,10185,   89
  348,20201011,   34,   91,10201,   87
  348,20201012,   25,   99,10187,   86
  348,20201013,   40,  102,10130,   83
  348,20201014,   39,   92,10193,   81
  348,20201015,   34,   95,10218,   74
  348,20201016,   20,   79,10234,   82
  348,20201017,   10,   78,10212,   91
  348,20201018,   20,   96,10218,   93
  348,20201019,   28,   97,10189,   85
  348,20201020,   46,  116,10073,   86
  348,20201021,   80,  152,10013,   85
  348,20201022,   46,  126,10101,   88
  348,20201023,   35,  115,10101,   94
  348,20201024,   71,  138,10076,   86
  348,20201025,   62,  119,10003,   87
  348,20201026,   61,  101, 9998,   84
  348,20201027,   70,   99,10016,   90
  348,20201028,   59,   99,10048,   91
  348,20201029,   55,  105,10129,   91
  348,20201030,   72,  140,10179,   94
  348,20201031,   55,  132,10161,   88
  348,20201101,   68,  141,10079,   90
  348,20201102,   91,  153,10076,   85
  348,20201103,   59,   85,10203,   85
  348,20201104,   23,   63,10323,   89
  348,20201105,   18,   68,10381,   92
  348,20201106,   27,   86,10317,   84
  348,20201107,   24,   76,10231,   86
  348,20201108,   24,   93,10215,   92
  348,20201109,   23,  125,10226,   91
  348,20201110,   19,  122,10248,   96
  348,20201111,   35,  110,10223,   96
  348,20201112,   52,   97,10158,   89
  348,20201113,   40,   93,10150,   95
  348,20201114,   50,  121,10128,   89
  348,20201115,   80,  122,10022,   82
  348,20201116,   66,   99,10125,   88
  348,20201117,   75,  117,10219,   91
  348,20201118,   59,  123,10189,   81
  348,20201119,   52,   81,10228,   82
  348,20201120,   33,   51,10333,   83
  348,20201121,   71,   86,10269,   90
  348,20201122,   40,   82,10250,   92
  348,20201123,   30,   52,10273,   88
  348,20201124,   40,   75,10208,   93
  348,20201125,   37,   64,10160,   90
  348,20201126,   19,   88,10202,   96
  348,20201127,   23,   66,10196,   95
  348,20201128,   35,   46,10213,   95
  348,20201129,   24,   17,10267,   90
  348,20201130,   46,   29,10206,   97
  348,20201201,   57,   81,10170,   88
  348,20201202,   19,   57,10157,   95
  348,20201203,   57,   55, 9946,   93
  348,20201204,   66,   49, 9835,   81
  348,20201205,   30,   24, 9971,   86
  348,20201206,   22,   17,10010,   94
  348,20201207,   41,   37, 9982,   97
  348,20201208,   15,   23,10045,   95
  348,20201209,   38,    8,10088,   98
  348,20201210,   35,    8,10054,   93
  348,20201211,   49,   27, 9924,   92
  348,20201212,   24,   67, 9971,   99
  348,20201213,   47,   68,10073,   92
  348,20201214,   60,   94,10050,   92
  348,20201215,   34,   83,10095,   97
  348,20201216,   42,   68,10138,   95
  348,20201217,   53,   84,10168,   92
  348,20201218,   53,   77,10175,   90
  348,20201219,   55,   79,10118,   91
  348,20201220,   47,   77,10160,   92
  348,20201221,   63,   80,10118,   96
  348,20201222,   55,  106,10112,   94
  348,20201223,   38,  108,10075,   96
  348,20201224,   47,   53,10129,   87
  348,20201225,   30,   28,10248,   88
  348,20201226,   74,   43,10162,   92
  348,20201227,   98,   52, 9810,   93
  348,20201228,   30,   36, 9772,   93
  348,20201229,   36,   35, 9879,   94
  348,20201230,   42,   39,10001,   93
  348,20201231,   14,   18,10031,   96
  348,20210101,   30,   25,10085,   96
  348,20210102,   22,   34,10135,   98
  348,20210103,   39,   34,10166,   86
  348,20210104,   57,   29,10176,   87
  348,20210105,   43,   30,10179,   89
  348,20210106,   28,   21,10168,   90
  348,20210107,   33,   26,10128,   94
  348,20210108,   17,   12,10166,   95
  348,20210109,   14,   -4,10241,   94
  348,20210110,   32,   18,10236,   91
  348,20210111,   73,   49,10154,   91
  348,20210112,   54,   51,10099,   87
  348,20210113,   41,   38,10160,   82
  348,20210114,   31,   14,10199,   82
  348,20210115,   21,    6,10287,   84
  348,20210116,   44,    5,10222,   88
  348,20210117,   34,   36,10190,   93
  348,20210118,   56,   44,10200,   94
  348,20210119,  103,   75,10052,   91
  348,20210120,   87,   88, 9945,   75
  348,20210121,   92,   66, 9867,   82
  348,20210122,   45,   32, 9921,   92
  348,20210123,   32,   29, 9941,   92
  348,20210124,   32,   20, 9980,   89
  348,20210125,   37,   22,10052,   88
  348,20210126,   50,   38,10156,   86
  348,20210127,   49,   45,10108,   97
  348,20210128,   27,   56,10022,   98
  348,20210129,   73,   79, 9955,   89
  348,20210130,   55,    6,10025,   80
  348,20210131,   41,  -11,10006,   85
  348,20210201,   26,   15, 9960,   94
  348,20210202,   40,   54, 9985,   96
  348,20210203,   41,   83, 9969,   94
  348,20210204,   34,   64,10116,   92
  348,20210205,   25,   71,10110,   94
  348,20210206,   58,   31,10084,   93
  348,20210207,   84,  -39,10009,   84
  348,20210208,   61,  -55,10030,   79
  348,20210209,   28,  -47,10085,   80
  348,20210210,   28,  -40,10162,   80
  348,20210211,   20,  -41,10301,   75
  348,20210212,   48,  -50,10349,   74
  348,20210213,   48,  -48,10390,   68
  348,20210214,   55,   -8,10335,   58
  348,20210215,   56,   29,10223,   87
  348,20210216,   49,   70,10131,   89
  348,20210217,   60,   91,10144,   86
  348,20210218,   58,   77,10086,   85
  348,20210219,   49,   65,10140,   87
  348,20210220,   53,  115,10108,   75
  348,20210221,   38,  115,10125,   72
  348,20210222,   40,  114,10181,   69
  348,20210223,   49,  122,10274,   79
  348,20210224,   50,  126,10270,   76
  348,20210225,   37,  104,10269,   84
  348,20210226,   31,   59,10354,   86
  348,20210227,   14,   40,10407,   93
  348,20210228,   23,   40,10374,   91
  348,20210301,   33,   50,10334,   90
  348,20210302,   23,   69,10300,   81
  348,20210303,   20,   42,10274,   97
  348,20210304,   33,   39,10224,   89
  348,20210305,   33,   20,10304,   75
  348,20210306,   19,   13,10333,   80
  348,20210307,   19,   17,10262,   81
  348,20210308,   30,   48,10226,   78
  348,20210309,   42,   51,10181,   88
  348,20210310,   68,   61,10120,   85
  348,20210311,  127,   91, 9964,   79
  348,20210312,   94,   67,10025,   82
  348,20210313,  109,   70, 9940,   77
  348,20210314,   59,   65,10089,   82
  348,20210315,   61,   64,10157,   86
  348,20210316,   31,   54,10240,   91
  348,20210317,   43,   51,10272,   86
  348,20210318,   27,   43,10240,   90
  348,20210319,   40,   42,10265,   77
  348,20210320,   28,   42,10288,   85
  348,20210321,   50,   59,10249,   81
  348,20210322,   23,   56,10257,   84
  348,20210323,   34,   63,10248,   88
  348,20210324,   32,   71,10216,   84
  348,20210325,   42,   79,10197,   82
  348,20210326,   65,   92,10140,   76
  348,20210327,   69,   65,10202,   75
  348,20210328,   73,   92,10250,   76
  348,20210329,   53,  111,10279,   70
  348,20210330,   25,  130,10288,   63
  348,20210331,   16,  142,10214,   69
  348,20210401,   46,   89,10233,   82
  348,20210402,   45,   51,10272,   83
  348,20210403,   51,   68,10285,   72
  348,20210404,   39,   59,10227,   77
  348,20210405,   83,   38,10117,   79
  348,20210406,   56,   17,10136,   84
  348,20210407,   70,   30,10180,   86
  348,20210408,   48,   46,10212,   74
  348,20210409,   45,   74,10134,   77
  348,20210410,   51,   51,10122,   87
  348,20210411,   54,   41,10155,   81
  348,20210412,   36,   26,10275,   83
  348,20210413,   27,   41,10325,   71
  348,20210414,   31,   41,10315,   75
  348,20210415,   27,   44,10310,   76
  348,20210416,   36,   59,10290,   72
  348,20210417,   37,   64,10264,   74
  348,20210418,   24,   72,10231,   83
  348,20210419,   22,   85,10203,   84
  348,20210420,   16,  103,10177,   77
  348,20210421,   45,   74,10201,   80
  348,20210422,   30,   60,10271,   74
  348,20210423,   26,   69,10296,   77
  348,20210424,   38,   75,10283,   70
  348,20210425,   41,   66,10274,   70
  348,20210426,   40,   69,10200,   68
  348,20210427,   31,   91,10104,   54
  348,20210428,   39,  101,10044,   58
  348,20210429,   58,   75,10064,   84
  348,20210430,   26,   75,10133,   88
  348,20210501,   37,   68,10144,   78
  348,20210502,   41,   62,10193,   77
  348,20210503,   62,   97,10142,   68
  348,20210504,  108,   87, 9972,   81
  348,20210505,   59,   65,10058,   81
  348,20210506,   30,   60,10065,   84
  348,20210507,   37,   65,10149,   78
  348,20210508,   49,  106,10106,   81
  348,20210509,   50,  179,10009,   74
  348,20210510,   46,  153,10041,   80
  348,20210511,   16,  129,10088,   86
  348,20210512,   29,  115,10110,   82
  348,20210513,   20,  122,10076,   83
  348,20210514,   21,  113,10078,   87
  348,20210515,   24,  107,10027,   87
  348,20210516,   48,  116,10001,   83
  348,20210517,   40,  112,10039,   88
  348,20210518,   34,  116,10128,   80
  348,20210519,   33,  105,10168,   88
  348,20210520,   43,  117,10159,   78
  348,20210521,  112,  125,10010,   67
  348,20210522,   62,  102,10027,   89
  348,20210523,   50,  117,10112,   76
  348,20210524,   50,  109,10069,   86
  348,20210525,   53,   99,10114,   88
  348,20210526,   60,  108,10118,   86
  348,20210527,   53,  102,10190,   88
  348,20210528,   17,  125,10245,   75
  348,20210529,   31,  127,10271,   80
  348,20210530,   29,  145,10270,   74
  348,20210531,   24,  171,10220,   65
  348,20210601,   30,  192,10168,   52
  348,20210602,   29,  211,10145,   57
  348,20210603,   33,  203,10186,   77
  348,20210604,   21,  197,10204,   78
  348,20210605,   39,  152,10218,   92
  348,20210606,   32,  160,10243,   72
  348,20210607,   30,  169,10241,   73
  348,20210608,   23,  191,10231,   65
  348,20210609,   25,  189,10218,   71
  348,20210610,   24,  191,10207,   70
  348,20210611,   34,  180,10196,   86
  348,20210612,   45,  164,10224,   72
  348,20210613,   12,  166,10270,   72
  348,20210614,   30,  203,10207,   62
  348,20210615,   25,  185,10207,   65
  348,20210616,   25,  225,10134,   61
  348,20210617,   40,  241,10109,   68
  348,20210618,   33,  228,10117,   81
  348,20210619,   39,  177,10129,   87
  348,20210620,   38,  188,10079,   83
  348,20210621,   47,  142,10110,   87
  348,20210622,   43,  147,10180,   72
  348,20210623,   28,  146,10219,   76
  348,20210624,   23,  148,10207,   76
  348,20210625,   33,  152,10178,   89
  348,20210626,   25,  193,10183,   80
  348,20210627,   38,  207,10154,   77
  348,20210628,   16,  201,10136,   86
  348,20210629,   35,  172,10119,   91
  348,20210630,   39,  140,10130,   93
  348,20210701,   43,  148,10157,   86
  348,20210702,   25,  167,10170,   85
  348,20210703,   26,  189,10142,   84
  348,20210704,   19,  179,10096,   88
  348,20210705,   36,  167,10075,   87
  348,20210706,   70,  176,10050,   76
  348,20210707,   36,  173,10147,   79
  348,20210708,   22,  181,10206,   77
  348,20210709,   26,  172,10212,   81
  348,20210710,   13,  175,10166,   83
  348,20210711,   19,  182,10159,   85
  348,20210712,   23,  197,10108,   80
  348,20210713,   41,  185,10110,   92
  348,20210714,   59,  178,10118,   93
  348,20210715,   58,  176,10167,   90
  348,20210716,   41,  178,10234,   77
  348,20210717,   40,  194,10261,   77
  348,20210718,   30,  198,10239,   78
  348,20210719,   21,  180,10223,   76
  348,20210720,   16,  178,10218,   72
  348,20210721,   16,  193,10233,   71
  348,20210722,   28,  177,10223,   75
  348,20210723,   26,  174,10175,   75
  348,20210724,   28,  184,10095,   85
  348,20210725,   23,  198,10079,   83
  348,20210726,   33,  189,10095,   89
  348,20210727,   38,  174,10103,   90
  348,20210728,   63,  173,10086,   83
  348,20210729,   70,  168,10100,   71
  348,20210730,   57,  169,10063,   78
  348,20210731,   54,  166,10073,   85
  348,20210801,   36,  160,10102,   86
  348,20210802,   21,  149,10145,   79
  348,20210803,   22,  154,10137,   80
  348,20210804,   15,  167,10133,   79
  348,20210805,   15,  183,10073,   78
  348,20210806,   62,  184,10018,   78
  348,20210807,   48,  169,10012,   83
  348,20210808,   72,  162,10076,   84
  348,20210809,   50,  163,10141,   84
  348,20210810,   38,  168,10160,   81
  348,20210811,   22,  176,10190,   80
  348,20210812,   26,  188,10193,   81
  348,20210813,   40,  172,10212,   80
  348,20210814,   33,  176,10198,   83
  348,20210815,   46,  190,10126,   79
  348,20210816,   60,  156,10129,   77
  348,20210817,   40,  149,10165,   91
  348,20210818,   32,  169,10148,   87
  348,20210819,   34,  163,10137,   89
  348,20210820,   31,  176,10164,   87
  348,20210821,   18,  193,10167,   83
  348,20210822,   45,  180,10156,   90
  348,20210823,   44,  180,10245,   79
  348,20210824,   38,  168,10281,   83
  348,20210825,   34,  162,10226,   85
  348,20210826,   40,  159,10166,   80
  348,20210827,   47,  154,10192,   81
  348,20210828,   47,  168,10213,   81
  348,20210829,   46,  163,10207,   89
  348,20210830,   44,  173,10219,   86
  348,20210831,   39,  162,10265,   83
  348,20210901,   21,  166,10287,   76
  348,20210902,   24,  163,10268,   76
  348,20210903,   33,  166,10212,   83
  348,20210904,   32,  158,10192,   82
  348,20210905,   21,  162,10215,   79
  348,20210906,   11,  176,10242,   78
  348,20210907,   18,  196,10227,   74
  348,20210908,   31,  208,10153,   69
  348,20210909,   29,  203,10101,   77
  348,20210910,   27,  193,10124,   91
  348,20210911,   43,  182,10160,   87
  348,20210912,   28,  155,10181,   87
  348,20210913,   18,  151,10185,   86
  348,20210914,   25,  177,10133,   86
  348,20210915,   29,  167,10119,   89
  348,20210916,   32,  158,10169,   82
  348,20210917,   21,  165,10160,   85
  348,20210918,   20,  164,10164,   81
  348,20210919,   35,  159,10155,   79
  348,20210920,   32,  129,10225,   71
  348,20210921,   13,  122,10300,   79
  348,20210922,   29,  137,10272,   81
  348,20210923,   44,  152,10182,   84
  348,20210924,   47,  177,10154,   82
  348,20210925,   27,  173,10151,   86
  348,20210926,   30,  179,10140,   85
  348,20210927,   49,  152,10144,   89
  348,20210928,   40,  139,10200,   80
  348,20210929,   55,  123,10166,   82
  348,20210930,   57,  119,10223,   76
  348,20211001,   65,  134,10131,   83
  348,20211002,   59,  141,10039,   90
  348,20211003,   43,  128,10005,   91
  348,20211004,   61,  133,10128,   80
  348,20211005,   64,  126,10046,   84
  348,20211006,   54,  119,10135,   92
  348,20211007,   18,  123,10275,   94
  348,20211008,   17,  109,10307,   89
  348,20211009,   22,  107,10289,   90
  348,20211010,   15,  107,10270,   91
  348,20211011,   27,  116,10265,   87
  348,20211012,   33,  105,10214,   87
  348,20211013,   30,  111,10255,   84
  348,20211014,   50,  134,10219,   91
  348,20211015,   34,  109,10186,   84
  348,20211016,   25,  101,10215,   82
  348,20211017,   32,  109,10201,   80
  348,20211018,   36,  114,10201,   86
  348,20211019,   57,  162,10143,   93
  348,20211020,   69,  153,10007,   87
  348,20211021,   68,   99,10023,   80
  348,20211022,   52,   86,10171,   84
  348,20211023,   25,   83,10264,   92
  348,20211024,   34,   79,10218,   86
  348,20211025,   38,  107,10168,   94
  348,20211026,   55,  121,10192,   91
  348,20211027,   53,  128,10208,   89
  348,20211028,   43,  112,10138,   86
  348,20211029,   59,  124,10052,   83
  348,20211030,   51,  120,10013,   95
  348,20211031,   55,  113, 9994,   92
  348,20211101,   65,   91, 9975,   87
  348,20211102,   31,   67, 9990,   95
  348,20211103,   12,   47,10019,   98
  348,20211104,   20,   61,10080,   93
  348,20211105,   30,   74,10229,   90
  348,20211106,   67,   94,10234,   90
  348,20211107,   55,   93,10167,   82
  348,20211108,   23,   75,10226,   91
  348,20211109,   34,   79,10253,   90
  348,20211110,   23,   86,10241,   87
  348,20211111,   22,   95,10236,   91
  348,20211112,   47,   74,10146,   91
  348,20211113,   30,  111,10118,   96
  348,20211114,   27,   98,10234,   90
  348,20211115,   27,   67,10266,   89
  348,20211116,   19,   51,10228,   91
  348,20211117,   40,   74,10217,   92
  348,20211118,   49,   93,10272,   92
  348,20211119,   40,  112,10289,   93
  348,20211120,   41,   97,10223,   93
  348,20211121,   33,   70,10146,   89
  348,20211122,   18,   36,10276,   89
  348,20211123,   14,   68,10300,   94
  348,20211124,   18,   64,10211,   96
  348,20211125,   25,   51,10110,   90
  348,20211126,   55,   42, 9922,   93
  348,20211127,   35,   32, 9891,   94
  348,20211128,   23,   21, 9992,   94
  348,20211129,   42,   39,10087,   89
  348,20211130,   72,   89,10056,   96
  348,20211201,   82,   75, 9937,   89
  348,20211202,   32,   23,10044,   89
  348,20211203,   65,   33,10052,   94
  348,20211204,   39,   48, 9961,   95
  348,20211205,   34,   43,10028,   92
  348,20211206,   45,   30,10100,   95
  348,20211207,   57,   40,10024,   88
  348,20211208,   62,   46, 9957,   87
  348,20211209,   49,   31,10011,   95
  348,20211210,   35,   34, 9955,   91
  348,20211211,   32,   46,10149,   94
  348,20211212,   58,   88,10208,   98
  348,20211213,   40,   91,10257,   93
  348,20211214,   46,   88,10269,   96
  348,20211215,   43,   91,10306,   96
  348,20211216,   14,   64,10374,   97
  348,20211217,   17,   73,10406,   96
  348,20211218,   19,   61,10393,   98
  348,20211219,   28,   66,10318,   95
  348,20211220,   16,   41,10283,   83
  348,20211221,   15,  -11,10266,   91
  348,20211222,   26,  -19,10225,   92
  348,20211223,   51,   22,10089,   93
  348,20211224,   45,   78,10043,   96
  348,20211225,   51,   -4,10085,   76
  348,20211226,   39,  -10,10053,   78
  348,20211227,   38,   60, 9975,   98
  348,20211228,   65,   88, 9921,   95
  348,20211229,   52,   92,10052,   96
  348,20211230,   96,  128,10137,   93
  348,20211231,   78,  125,10180,   88
  348,20220101,   48,  117,10207,   92
  348,20220102,   84,  114,10111,   87
  348,20220103,   74,   94,10076,   88
  348,20220104,   40,   63, 9981,   89
  348,20220105,   65,   46,10070,   84
  348,20220106,   41,   29,10171,   87
  348,20220107,   59,   29,10094,   91
  348,20220108,   60,   29,10013,   94
  348,20220109,   49,   39,10007,   88
  348,20220110,   28,   18,10218,   96
  348,20220111,   34,   21,10324,   92
  348,20220112,   22,   37,10393,   99
  348,20220113,   38,   41,10399,   99
  348,20220114,   23,   40,10353,   98
  348,20220115,   35,   22,10274,   99
  348,20220116,   45,   51,10251,   95
  348,20220117,   40,   54,10345,   92
  348,20220118,   18,   35,10373,   98
  348,20220119,   39,   39,10244,   94
  348,20220120,   49,   32,10295,   83
  348,20220121,   35,   41,10341,   89
  348,20220122,   30,   59,10345,   92
  348,20220123,   16,   57,10355,   91
  348,20220124,   15,   42,10344,   81
  348,20220125,   11,   31,10340,   83
  348,20220126,   45,   40,10307,   88
  348,20220127,   66,   67,10247,   87
  348,20220128,   45,   56,10323,   87
  348,20220129,   83,   90,10239,   84
  348,20220130,   45,   55,10266,   76
  348,20220131,  105,   56,10134,   80
  348,20220201,   76,   73,10156,   86
  348,20220202,   50,   84,10194,   88
  348,20220203,   62,   75,10145,   92
  348,20220204,   75,   65,10094,   85
  348,20220205,   82,   60,10164,   83
  348,20220206,  112,   75,10029,   85
  348,20220207,   65,   59,10224,   78
  348,20220208,   74,   95,10257,   84
  348,20220209,   60,   86,10238,   94
  348,20220210,   35,   64,10203,   85
  348,20220211,   48,   37,10297,   79
  348,20220212,   48,   24,10254,   77
  348,20220213,   67,   57,10078,   73
  348,20220214,   78,   84, 9999,   80
  348,20220215,   70,   70,10069,   89
  348,20220216,  118,  110, 9945,   91
  348,20220217,  110,   87,10046,   72
  348,20220218,  124,   81, 9976,   78
  348,20220219,  103,   59,10086,   75
  348,20220220,  113,   81,10018,   91
  348,20220221,  115,   64,10029,   77
  348,20220222,   65,   67,10167,   88
  348,20220223,   55,   68,10218,   79
  348,20220224,   70,   59,10104,   78
  348,20220225,   55,   43,10230,   84
  348,20220226,   27,   28,10337,   86
  348,20220227,   48,   44,10306,   69
  348,20220228,   38,   41,10292,   67
  348,20220301,   24,   50,10275,   74
  348,20220302,   29,   63,10233,   59
  348,20220303,   38,   53,10188,   57
  348,20220304,   40,   46,10205,   65
  348,20220305,   28,   21,10215,   79
  348,20220306,   44,   22,10270,   72
  348,20220307,   36,   28,10263,   69
  348,20220308,   50,   46,10209,   55
  348,20220309,   38,   65,10218,   55
  348,20220310,   38,   84,10213,   57
  348,20220311,   60,   95,10131,   52
  348,20220312,   50,  111,10148,   66
  348,20220313,   49,  117,10132,   65
  348,20220314,   38,   86,10243,   85
  348,20220315,   22,   79,10245,   83
  348,20220316,   47,   93,10213,   77
  348,20220317,   45,   73,10303,   78
  348,20220318,   25,   79,10428,   76
  348,20220319,   55,   89,10400,   58
  348,20220320,   45,   47,10288,   72
  348,20220321,   26,   85,10303,   67
  348,20220322,   22,  118,10307,   64
  348,20220323,   16,  103,10303,   65
  348,20220324,   19,   94,10297,   72
  348,20220325,   29,   85,10310,   76
  348,20220326,   30,  100,10324,   75
  348,20220327,   32,  100,10307,   75
  348,20220328,   22,   81,10221,   87
  348,20220329,   30,   80,10122,   84
  348,20220330,   33,   63,10050,   77
  348,20220331,   49,   21,10016,   93
  348,20220401,   70,   22,10113,   78
  348,20220402,   43,   25,10201,   64
  348,20220403,   30,   24,10225,   82
  348,20220404,   85,   71,10082,   91
  348,20220405,   63,  101,10053,   91
  348,20220406,   93,   96, 9978,   86
  348,20220407,  116,   86, 9870,   79
  348,20220408,   45,   58, 9991,   77
  348,20220409,   53,   47,10127,   79
  348,20220410,   26,   60,10201,   70
  348,20220411,   41,   98,10152,   60
  348,20220412,   36,  135,10096,   66
  348,20220413,   25,  124,10170,   87
  348,20220414,   26,  119,10221,   83
  348,20220415,   27,  102,10286,   81
  348,20220416,   39,  108,10318,   65
  348,20220417,   36,  114,10254,   51
  348,20220418,   26,  126,10178,   53
  348,20220419,   31,  127,10151,   60
  348,20220420,   39,  121,10161,   58
  348,20220421,   43,  129,10126,   60
  348,20220422,   51,  130,10073,   65
  348,20220423,   60,  137,10043,   62
  348,20220424,   54,  116,10061,   66
  348,20220425,   34,   86,10130,   84
  348,20220426,   45,   90,10202,   74
  348,20220427,   26,   75,10270,   77
  348,20220428,   36,   89,10307,   75
  348,20220429,   39,   84,10298,   77
  348,20220430,   28,   79,10274,   82
  348,20220501,   16,   87,10237,   73
  348,20220502,   27,  109,10204,   68
  348,20220503,   31,   97,10200,   83
  348,20220504,   17,  102,10196,   74
  348,20220505,   19,  122,10228,   82
  348,20220506,   22,  137,10250,   81
  348,20220507,   35,  144,10243,   79
  348,20220508,   38,  116,10282,   72
  348,20220509,   16,  145,10243,   67
  348,20220510,   50,  170,10160,   67
  348,20220511,   65,  160,10111,   66
  348,20220512,   43,  135,10179,   69
  348,20220513,   60,  141,10194,   69
  348,20220514,   25,  151,10213,   73
  348,20220515,   34,  187,10179,   54
  348,20220516,   47,  174,10159,   74
  348,20220517,   23,  185,10193,   77
  348,20220518,   27,  189,10201,   77
  348,20220519,   32,  171,10187,   88
  348,20220520,   37,  135,10181,   87
  348,20220521,   43,  141,10205,   78
  348,20220522,   23,  160,10144,   69
  348,20220523,   32,  158,10013,   84
  348,20220524,   53,  129,10060,   82
  348,20220525,   67,  137,10144,   80
  348,20220526,   70,  159,10197,   77
  348,20220527,   56,  134,10219,   71
  348,20220528,   49,  119,10216,   72
  348,20220529,   35,  103,10158,   81
  348,20220530,   15,  107,10141,   75
  348,20220531,   25,  129,10132,   74
  348,20220601,   40,  122,10160,   80
  348,20220602,   20,  136,10211,   72
  348,20220603,   40,  174,10185,   61
  348,20220604,   50,  171,10200,   68
  348,20220605,   43,  163,10136,   86
  348,20220606,   66,  140,10133,   89
  348,20220607,   40,  158,10121,   81
  348,20220608,   45,  155,10068,   90
  348,20220609,   45,  158,10153,   75
  348,20220610,   43,  176,10204,   80
  348,20220611,   41,  169,10222,   71
  348,20220612,   37,  158,10222,   74
  348,20220613,   37,  144,10233,   72
  348,20220614,   18,  154,10224,   68
  348,20220615,   32,  181,10193,   64
  348,20220616,   20,  188,10228,   59
  348,20220617,   35,  222,10212,   61
  348,20220618,   38,  207,10155,   72
  348,20220619,   44,  146,10132,   78
  348,20220620,   38,  148,10169,   75
  348,20220621,   18,  158,10153,   72
  348,20220622,   32,  186,10133,   67
  348,20220623,   30,  227,10100,   67
  348,20220624,   24,  193,10069,   88
  348,20220625,   29,  182,10109,   85
  348,20220626,   31,  177,10149,   79
  348,20220627,   21,  163,10173,   84
  348,20220628,   28,  179,10196,   67
  348,20220629,   31,  212,10133,   64
  348,20220630,   35,  172,10124,   83
  348,20220701,   48,  157,10180,   79
  348,20220702,   32,  179,10200,   69
  348,20220703,   35,  167,10188,   79
  348,20220704,   32,  166,10204,   76
  348,20220705,   32,  157,10236,   73
  348,20220706,   33,  168,10245,   71
  348,20220707,   59,  161,10253,   77
  348,20220708,   27,  173,10308,   77
  348,20220709,   38,  167,10279,   78
  348,20220710,   35,  168,10261,   77
  348,20220711,   17,  185,10244,   80
  348,20220712,   20,  213,10237,   72
  348,20220713,   38,  210,10205,   71
  348,20220714,   30,  168,10215,   72
  348,20220715,   25,  167,10227,   68
  348,20220716,   38,  172,10251,   70
  348,20220717,   14,  184,10267,   66
  348,20220718,   19,  235,10213,   54
  348,20220719,   31,  284,10152,   42
  348,20220720,   40,  226,10165,   69
  348,20220721,   40,  175,10190,   91
  348,20220722,   18,  173,10203,   75
  348,20220723,   14,  186,10195,   74
  348,20220724,   34,  229,10156,   66
  348,20220725,   55,  206,10102,   73
  348,20220726,   38,  169,10175,   76
  348,20220727,   32,  163,10206,   67
  348,20220728,   37,  174,10186,   59
  348,20220729,   29,  187,10176,   68
  348,20220730,   20,  190,10187,   72
  348,20220731,   43,  193,10159,   89
  348,20220801,   27,  190,10185,   71
  348,20220802,   45,  209,10163,   68
  348,20220803,   34,  230,10144,   73
  348,20220804,   31,  213,10139,   73
  348,20220805,   37,  171,10204,   70
  348,20220806,   21,  157,10278,   71
  348,20220807,   23,  166,10257,   72
  348,20220808,   27,  175,10266,   75
  348,20220809,   37,  192,10281,   72
  348,20220810,   33,  218,10252,   63
  348,20220811,   29,  240,10215,   52
  348,20220812,   25,  247,10183,   49
  348,20220813,   26,  243,10154,   47
  348,20220814,   25,  249,10073,   55
  348,20220815,   26,  223,10042,   71
  348,20220816,   28,  216,10083,   76
  348,20220817,   34,  196,10113,   90
  348,20220818,   20,  199,10136,   83
  348,20220819,   25,  193,10143,   91
  348,20220820,   25,  186,10170,   74
  348,20220821,   29,  184,10164,   78
  348,20220822,   19,  206,10152,   67
  348,20220823,   20,  220,10157,   73
  348,20220824,   18,  232,10179,   75
  348,20220825,   35,  242,10150,   66
  348,20220826,   41,  186,10172,   80
  348,20220827,   25,  164,10183,   77
  348,20220828,   33,  163,10215,   73
  348,20220829,   21,  167,10220,   77
  348,20220830,   43,  185,10215,   69
  348,20220831,   45,  185,10221,   59
  348,20220901,   38,  192,10198,   53
  348,20220902,   38,  200,10139,   49
  348,20220903,   33,  205,10114,   53
  348,20220904,   20,  199,10172,   71
  348,20220905,   30,  224,10181,   60
  348,20220906,   29,  206,10144,   76
  348,20220907,   28,  191,10115,   79
  348,20220908,   40,  174,10075,   83
  348,20220909,   48,  157,10065,   91
  348,20220910,   34,  170,10118,   86
  348,20220911,   10,  165,10185,   84
  348,20220912,   26,  183,10134,   79
  348,20220913,   22,  185,10099,   79
  348,20220914,   14,  155,10065,   82
  348,20220915,   33,  147,10094,   78
  348,20220916,   35,  124,10119,   81
  348,20220917,   46,  124,10154,   78
  348,20220918,   33,  111,10158,   89
  348,20220919,   32,  124,10210,   81
  348,20220920,   20,  124,10244,   82
  348,20220921,   12,  111,10263,   80
  348,20220922,   17,  118,10215,   79
  348,20220923,   27,  139,10149,   82
  348,20220924,   30,  128,10134,   92
  348,20220925,   22,  115,10144,   84
  348,20220926,   51,  116, 9991,   89
  348,20220927,   35,   92, 9974,   91
  348,20220928,   30,   95, 9974,   88
  348,20220929,   13,   93,10033,   86
  348,20220930,   45,  115,10074,   80
  348,20221001,   64,  140,10060,   85
  348,20221002,   35,  130,10191,   85
  348,20221003,   17,  119,10260,   90
  348,20221004,   40,  139,10192,   84
  348,20221005,   69,  155,10149,   79
  348,20221006,   44,  120,10274,   78
  348,20221007,   50,  128,10205,   82
  348,20221008,   36,  112,10215,   84
  348,20221009,   30,  107,10204,   78
  348,20221010,   30,   97,10173,   89
  348,20221011,   13,   90,10262,   85
  348,20221012,   20,   95,10222,   86
  348,20221013,   29,  118,10162,   93
  348,20221014,   30,  131,10101,   96
  348,20221015,   43,  136,10062,   90
  348,20221016,   43,  144,10138,   84
  348,20221017,   34,  154,10198,   95
  348,20221018,   16,  116,10280,   88
  348,20221019,   40,  102,10243,   83
  348,20221020,   43,  130,10106,   93
  348,20221021,   35,  151,10067,   90
  348,20221022,   41,  143,10119,   88
  348,20221023,   45,  150,10066,   87
  348,20221024,   71,  149,10055,   83
  348,20221025,   44,  135,10140,   89
  348,20221026,   41,  148,10156,   86
  348,20221027,   35,  157,10187,   86
  348,20221028,   36,  156,10177,   88
  348,20221029,   28,  158,10172,   87
  348,20221030,   24,  143,10173,   90
  348,20221031,   32,  130,10153,   91
  348,20221101,   87,  142,10116,   75
  348,20221102,   68,  118,10164,   78
  348,20221103,   62,  122,10037,   84
  348,20221104,   23,   85,10081,   92
  348,20221105,   48,   88,10155,   87
  348,20221106,   73,  103,10077,   88
  348,20221107,   70,  127,10082,   87
  348,20221108,   60,  127,10042,   81
  348,20221109,   66,  118,10086,   85
  348,20221110,   50,  109,10226,   90
  348,20221111,   39,   88,10292,   94
  348,20221112,   18,   82,10296,   90
  348,20221113,   21,   80,10214,   82
  348,20221114,   34,   58,10110,   90
  348,20221115,   50,  107,10030,   90
  348,20221116,   48,  103, 9963,   89
  348,20221117,   74,  101, 9869,   88
  348,20221118,   38,   78,10015,   96
  348,20221119,   39,   11,10124,   82
  348,20221120,   25,    0,10080,   95
  348,20221121,   37,   55, 9986,   92
  348,20221122,   57,   65, 9920,   92
  348,20221123,   58,   79, 9968,   91
  348,20221124,   59,   86,10074,   88
  348,20221125,   42,   75,10160,   93
  348,20221126,   41,   68,10266,   94
  348,20221127,   52,   68,10166,   91
  348,20221128,   29,   78,10105,   98
  348,20221129,   11,   61,10192,   99
  348,20221130,   15,   54,10252,   96
  348,20221201,   22,   33,10278,   95
  348,20221202,   43,   28,10249,   86
  348,20221203,   41,   12,10211,   83
  348,20221204,   42,   11,10181,   86
  348,20221205,   32,   48,10198,   96
  348,20221206,   25,   43,10196,   94
  348,20221207,   25,   36,10156,   93
  348,20221208,   29,   25,10075,   95
  348,20221209,   16,   -7,10068,   97
  348,20221210,   35,   -3,10100,   99
  348,20221211,   27,   12,10100,   90
  348,20221212,   19,  -25,10121,   93
  348,20221213,   26,  -33,10096,   89
  348,20221214,   22,  -37,10040,   83
  348,20221215,   25,  -17,10083,   94
  348,20221216,   18,  -15,10164,   94
  348,20221217,   40,  -21,10255,   98
  348,20221218,   42,  -27,10232,   89
  348,20221219,   72,   74,10135,   91
  348,20221220,   54,   93,10099,   95
  348,20221221,   41,   74,10083,   97
  348,20221222,   37,   84,10035,   97
  348,20221223,   45,   94,10028,   96
  348,20221224,   50,   86,10113,   94
  348,20221225,   28,   86,10106,   98
  348,20221226,   57,   61,10144,   87
  348,20221227,   60,   53,10212,   90
  348,20221228,   95,   92,10063,   90
  348,20221229,   95,   87,10023,   86
  348,20221230,   79,   84,10028,   91
  348,20221231,   91,  137,10040,   83
  348,20230101,   69,  119,10113,   82
  348,20230102,   47,   82,10164,   94
  348,20230103,   56,   65,10236,   92
  348,20230104,  110,  115,10137,   88
  348,20230105,   61,  106,10184,   89
  348,20230106,   64,  104,10158,   88
  348,20230107,   73,  100,10076,   84
  348,20230108,   58,   81, 9977,   84
  348,20230109,   54,   66, 9996,   88
  348,20230110,   70,   68,10117,   91
  348,20230111,   88,   97,10083,   86
  348,20230112,  110,  103,10034,   92
  348,20230113,   93,   86,10068,   77
  348,20230114,   81,   82,10019,   90
  348,20230115,   88,   59, 9976,   81
  348,20230116,   51,   41, 9825,   92
  348,20230117,   31,    6, 9878,   86
  348,20230118,   53,   14, 9953,   89
  348,20230119,   43,   24,10052,   86
  348,20230120,   39,    5,10157,   95
  348,20230121,   28,  -16,10324,   97
  348,20230122,   28,    5,10341,   90
  348,20230123,   27,   28,10373,   88
  348,20230124,   27,   17,10387,   84
  348,20230125,   23,   -6,10318,   92
  348,20230126,   37,   40,10251,   90
  348,20230127,   44,   40,10281,   79
  348,20230128,   19,   27,10306,   80
  348,20230129,   60,   40,10245,   86
  348,20230130,   74,   64,10200,   80
  348,20230131,   60,   57,10212,   87
  348,20230201,   89,   76,10192,   77
  348,20230202,   68,   83,10235,   87
  348,20230203,   70,   91,10274,   85
  348,20230204,   15,   74,10362,   93
  348,20230205,   56,   61,10400,   85
  348,20230206,   16,   34,10415,   90
  348,20230207,   16,   -2,10397,   91
  348,20230208,   24,   10,10357,   70
  348,20230209,   34,    8,10323,   84
  348,20230210,   47,   33,10355,   91
  348,20230211,   33,   69,10353,   92
  348,20230212,   15,   70,10385,   84
  348,20230213,   22,   71,10359,   85
  348,20230214,   18,   49,10320,   89
  348,20230215,   29,   50,10251,   87
  348,20230216,   55,   81,10211,   91
  348,20230217,   88,  101,10194,   92
  348,20230218,   79,  101,10185,   92
  348,20230219,   49,   76,10233,   92
  348,20230220,   85,   80,10217,   91
  348,20230221,   39,   76,10184,   96
  348,20230222,   32,   67,10121,   94
  348,20230223,   28,   61,10155,   93
  348,20230224,   49,   40,10090,   88
  348,20230225,   45,   35,10131,   74
  348,20230226,   44,   22,10255,   65
  348,20230227,   30,   22,10305,   73
  348,20230228,   27,   21,10314,   75
  348,20230301,   31,   20,10278,   70
  348,20230302,   39,   31,10244,   84
  348,20230303,   32,   40,10264,   83
  348,20230304,   36,   57,10252,   80
  348,20230305,   23,   32,10158,   88
  348,20230306,   45,   38,10039,   87
  348,20230307,   35,   19, 9983,   93
  348,20230308,   36,    7, 9943,   94
  348,20230309,   34,   18, 9941,   95
  348,20230310,   53,   20, 9932,   92
  348,20230311,   20,   22,10107,   70
  348,20230312,   64,   72,10067,   86
  348,20230313,   97,  122, 9932,   80
  348,20230314,   71,   62, 9997,   79
  348,20230315,   30,   46,10171,   75
  348,20230316,   56,   84,10115,   69
  348,20230317,   30,  112,10066,   73
  348,20230318,   38,  119,10094,   85
  348,20230319,   36,   90,10148,   92
  348,20230320,   53,   81,10178,   94
  348,20230321,   50,  102,10119,   89
  348,20230322,   75,  107,10047,   88
  348,20230323,   80,  126,10010,   80
  348,20230324,   86,  110,10002,   81
  348,20230325,   91,   94,10031,   83
  348,20230326,   41,   69,10064,   85
  348,20230327,   44,   36,10226,   79
  348,20230328,   43,   45,10227,   79
  348,20230329,   43,  106,10113,   83
  348,20230330,   85,  122,10050,   80
  348,20230331,   71,  106, 9926,   93
  348,20230401,   59,   92,10000,   96
  348,20230402,   49,   57,10232,   75
  348,20230403,   43,   53,10310,   60
  348,20230404,   23,   49,10281,   67
  348,20230405,   15,   60,10217,   65
  348,20230406,   43,   72,10146,   85
  348,20230407,   32,   85,10185,   90
  348,20230408,   23,   89,10251,   83
  348,20230409,   27,  110,10234,   73
  348,20230410,   60,  105,10130,   79
  348,20230411,   68,  100,10103,   70
  348,20230412,   66,   89, 9971,   78
  348,20230413,   62,   79,10018,   78
  348,20230414,   36,   94,10080,   68
  348,20230415,   55,   92,10159,   75
  348,20230416,   43,   88,10249,   93
  348,20230417,   40,  100,10271,   85
  348,20230418,   43,   93,10270,   71
  348,20230419,   57,  109,10256,   54
  348,20230420,   48,   84,10187,   67
  348,20230421,   35,  106,10117,   83
  348,20230422,   21,   90,10070,   93
  348,20230423,   48,  113,10024,   88
  348,20230424,   62,   83,10061,   84
  348,20230425,   39,   57,10161,   78
  348,20230426,   17,   57,10198,   77
  348,20230427,   33,   86,10189,   62
  348,20230428,   48,  106,10114,   88
  348,20230429,   33,  109,10203,   75
  348,20230430,   25,  119,10218,   72
  348,20230501,   27,  118,10167,   79
  348,20230502,   38,   92,10265,   71
  348,20230503,   35,   99,10273,   64
  348,20230504,   40,  147,10177,   62
  348,20230505,   24,  136,10161,   88
  348,20230506,   20,  147,10162,   86
  348,20230507,   21,  157,10178,   88
  348,20230508,   23,  149,10202,   90
  348,20230509,   34,  136,10112,   95
  348,20230510,   25,  129,10117,   93
  348,20230511,   17,  131,10156,   91
  348,20230512,   41,  154,10184,   80
  348,20230513,   41,  159,10211,   76
  348,20230514,   35,  135,10180,   86
  348,20230515,   43,  104,10164,   90
  348,20230516,   43,  102,10226,   76
  348,20230517,   35,  105,10277,   72
  348,20230518,   27,  101,10282,   67
  348,20230519,   40,  134,10257,   67
  348,20230520,   44,  157,10221,   62
  348,20230521,   43,  162,10174,   78
  348,20230522,   42,  166,10162,   84
  348,20230523,   52,  121,10234,   74
  348,20230524,   30,  116,10249,   76
  348,20230525,   40,  126,10285,   75
  348,20230526,   46,  124,10306,   69
  348,20230527,   34,  142,10254,   73
  348,20230528,   51,  154,10220,   75
  348,20230529,   57,  126,10261,   69
  348,20230530,   41,  127,10274,   77
  348,20230531,   49,  152,10251,   78
  348,20230601,   48,  126,10233,   77
  348,20230602,   39,  136,10222,   73
  348,20230603,   40,  166,10219,   53
  348,20230604,   45,  155,10227,   65
  348,20230605,   47,  141,10223,   76
  348,20230606,   48,  153,10213,   77
  348,20230607,   40,  157,10206,   76
  348,20230608,   47,  173,10171,   72
  348,20230609,   39,  219,10143,   56
  348,20230610,   36,  242,10152,   45
  348,20230611,   36,  249,10151,   49
  348,20230612,   36,  244,10150,   41
  348,20230613,   43,  223,10142,   44
  348,20230614,   38,  209,10172,   45
  348,20230615,   28,  209,10196,   54
  348,20230616,   21,  195,10186,   58
  348,20230617,   15,  206,10153,   55
  348,20230618,   29,  219,10113,   59
  348,20230619,   48,  210,10119,   67
  348,20230620,   32,  218,10106,   75
  348,20230621,   33,  204,10169,   75
  348,20230622,   27,  189,10176,   83
  348,20230623,   28,  201,10233,   74
  348,20230624,   22,  210,10232,   71
  348,20230625,   27,  246,10159,   62
  348,20230626,   47,  189,10177,   69
  348,20230627,   31,  177,10201,   70
  348,20230628,   28,  186,10177,   83
  348,20230629,   41,  183,10146,   83
  348,20230630,   43,  176,10123,   68
  348,20230701,   59,  176,10048,   85
  348,20230702,   62,  172,10098,   63
  348,20230703,   68,  165,10098,   68
  348,20230704,   44,  168,10105,   73
  348,20230705,   80,  152,10085,   79
  348,20230706,   33,  172,10173,   72
  348,20230707,   33,  219,10187,   52
  348,20230708,   26,  245,10162,   57
  348,20230709,   28,  218,10187,   79
  348,20230710,   28,  201,10201,   71
  348,20230711,   41,  215,10115,   70
  348,20230712,   60,  187,10115,   73
  348,20230713,   44,  175,10163,   79
  348,20230714,   31,  193,10116,   72
  348,20230715,   51,  200,10051,   74
  348,20230716,   72,  184,10120,   69
  348,20230717,   50,  167,10184,   77
  348,20230718,   25,  178,10180,   75
  348,20230719,   27,  178,10139,   81
  348,20230720,   18,  167,10147,   75
  348,20230721,   25,  156,10124,   81
  348,20230722,   46,  160,10120,   85
  348,20230723,   60,  180,10052,   86
  348,20230724,   46,  166,10039,   84
  348,20230725,   33,  151,10089,   74
  348,20230726,   33,  160,10118,   74
  348,20230727,   59,  172,10044,   96
  348,20230728,   40,  192,10066,   88
  348,20230729,   49,  183,10072,   81
  348,20230730,   64,  171,10103,   82
  348,20230731,   65,  172,10043,   94
  348,20230801,   56,  171,10001,   81
  348,20230802,   63,  175, 9911,   87
  348,20230803,   53,  167,10005,   88
  348,20230804,   33,  163,10146,   84
  348,20230805,   37,  153,10100,   89
  348,20230806,   58,  151,10087,   87
  348,20230807,   57,  155,10157,   77
  348,20230808,   49,  158,10133,   80
  348,20230809,   32,  159,10173,   81
  348,20230810,   19,  184,10210,   74
  348,20230811,   31,  206,10187,   81
  348,20230812,   42,  193,10156,   82
  348,20230813,   34,  180,10160,   83
  348,20230814,   25,  202,10134,   77
  348,20230815,   33,  184,10163,   84
  348,20230816,   28,  190,10208,   74
  348,20230817,   37,  183,10197,   82
  348,20230818,   30,  210,10153,   84
  348,20230819,   34,  216,10158,   82
  348,20230820,   21,  198,10225,   78
  348,20230821,   16,  198,10229,   80
  348,20230822,   25,  186,10206,   83
  348,20230823,   24,  191,10197,   79
  348,20230824,   28,  205,10129,   84
  348,20230825,   20,  194,10081,   88
  348,20230826,   39,  160,10098,   85
  348,20230827,   38,  147,10092,   87
  348,20230828,   20,  157,10125,   83
  348,20230829,   20,  146,10113,   84
  348,20230830,   42,  140,10064,   84
  348,20230831,   34,  155,10102,   78
  348,20230901,   18,  165,10131,   91
  348,20230902,   19,  172,10213,   91
  348,20230903,   15,  173,10277,   78
  348,20230904,   25,  188,10245,   76
  348,20230905,   32,  222,10187,   67
  348,20230906,   25,  230,10194,   68
  348,20230907,   30,  230,10182,   68
  348,20230908,   17,  223,10165,   77
  348,20230909,   12,  216,10168,   80
  348,20230910,   25,  249,10162,   72
  348,20230911,   27,  218,10131,   81
  348,20230912,   19,  194,10130,   90
  348,20230913,   36,  168,10188,   80
  348,20230914,   17,  159,10220,   77
  348,20230915,   26,  170,10171,   75
  348,20230916,   22,  191,10142,   74
  348,20230917,   28,  173,10115,   91
  348,20230918,   59,  185,10034,   86
  348,20230919,   83,  164,10079,   80
  348,20230920,   68,  184,10039,   77
  348,20230921,   34,  155, 9970,   92
  348,20230922,   46,  136,10015,   88
  348,20230923,   39,  131,10150,   91
  348,20230924,   41,  140,10230,   78
  348,20230925,   29,  153,10215,   80
  348,20230926,   23,  165,10198,   83
  348,20230927,   28,  179,10168,   83
  348,20230928,   39,  169,10158,   82
  348,20230929,   42,  160,10179,   86
  348,20230930,   26,  151,10253,   85
  348,20231001,   33,  174,10218,   81
  348,20231002,   25,  186,10169,   87
  348,20231003,   58,  158,10160,   83
  348,20231004,   50,  140,10249,   83
  348,20231005,   43,  148,10240,   84
  348,20231006,   60,  157,10224,   85
  348,20231007,   61,  178,10212,   84
  348,20231008,   25,  151,10237,   92
  348,20231009,   30,  172,10202,   89
  348,20231010,   39,  168,10169,   83
  348,20231011,   56,  173,10122,   86
  348,20231012,   35,  159,10122,   97
  348,20231013,   70,  178,10031,   89
  348,20231014,   52,  108,10131,   75
  348,20231015,   23,   76,10218,   87
  348,20231016,   17,   93,10224,   86
  348,20231017,   38,   92,10180,   81
  348,20231018,   58,   99,10026,   78
  348,20231019,   41,  152, 9897,   93
  348,20231020,   53,  124, 9800,   96
  348,20231021,   67,  132, 9906,   87
  348,20231022,   49,  115,10060,   89
  348,20231023,   30,  110,10096,   95
  348,20231024,   53,  112,10011,   91
  348,20231025,   32,   96, 9960,   96
  348,20231026,   24,   96, 9950,   97
  348,20231027,   25,  105, 9922,   96
  348,20231028,   55,  119, 9937,   88
  348,20231029,   80,  125, 9920,   81
  348,20231030,   36,  107, 9975,   93
  348,20231031,   43,  110,10016,   94
  348,20231101,   63,  121, 9966,   89
  348,20231102,  117,  108, 9745,   80
  348,20231103,   94,   94, 9825,   84
  348,20231104,   63,   94, 9762,   90
  348,20231105,   63,  104, 9791,   89
  348,20231106,   76,   96, 9994,   87
  348,20231107,   63,   92,10079,   88
  348,20231108,   75,   93,10075,   92
  348,20231109,   58,   91, 9985,   90
  348,20231110,   54,   72, 9956,   91
  348,20231111,   33,   72,10042,   89
  348,20231112,   25,   52,10065,   98
  348,20231113,   78,  106,10002,   89
  348,20231114,   75,  117,10024,   88
  348,20231115,   60,  109,10130,   83
  348,20231116,   22,   72,10136,   95
  348,20231117,   20,   58,10201,   93
  348,20231118,   59,   86,10151,   96
  348,20231119,   89,  123,10070,   87
  348,20231120,   47,   95,10084,   91
  348,20231121,   29,   76,10191,   96
  348,20231122,   37,   51,10280,   95
  348,20231123,   71,  108,10190,   88
  348,20231124,   69,   64,10123,   79
  348,20231125,   40,   52,10137,   84
  348,20231126,   34,   53,10140,   94
  348,20231127,   48,   45, 9978,   95
  348,20231128,   41,   20,10056,   84
  348,20231129,   35,   21,10022,   91
  348,20231130,   14,   -5,10025,   98
  348,20231201,   18,  -13,10082,   90
  348,20231202,   24,   -7,10146,   95
  348,20231203,   48,    6,10174,   90
  348,20231204,   54,   20,10044,   85
  348,20231205,   36,   21,10042,   95
  348,20231206,   23,   25,10157,   92
  348,20231207,   43,   12,10153,   94
  348,20231208,   44,   55,10071,   96
  348,20231209,   74,   78, 9992,   90
  348,20231210,   98,   95,10005,   82
  348,20231211,   70,   89,10019,   89
  348,20231212,   35,   78,10012,   96
  348,20231213,   29,   81, 9994,   96
  348,20231214,   31,   55,10198,   89
  348,20231215,   32,   77,10342,   87
  348,20231216,   52,   81,10379,   94
  348,20231217,   61,   80,10346,   89
  348,20231218,   64,   73,10288,   91
  348,20231219,   63,   77,10179,   96
  348,20231220,   75,   86,10126,   86
  348,20231221,  108,   98,10000,   84
  348,20231222,  103,   94,10046,   81
  348,20231223,  100,  102,10080,   82
  348,20231224,  118,  116,10036,   93
  348,20231225,   79,  114,10060,   91
  348,20231226,   57,   77,10144,   84
  348,20231227,   60,   76,10122,   89
  348,20231228,  109,  105,10081,   78
  348,20231229,   86,   95,10062,   86
  348,20231230,   58,   80,10093,   87
  348,20231231,   90,   87, 9955,   81
  348,20240101,   76,   72,10014,   88
  348,20240102,   98,  106, 9876,   91
  348,20240103,   84,   93, 9896,   89
  348,20240104,   39,   78,10011,   93
  348,20240105,   55,   72, 9969,   92
  348,20240106,   45,   34,10120,   88
  348,20240107,   48,   -2,10255,   81
  348,20240108,   57,  -17,10325,   70
  348,20240109,   53,  -29,10331,   56
  348,20240110,   35,  -31,10307,   61
  348,20240111,   20,  -16,10345,   87
  348,20240112,   16,   29,10328,   91
  348,20240113,   44,   29,10220,   95
  348,20240114,   57,   23,10089,   95
  348,20240115,   46,   11,10043,   89
  348,20240116,   44,    1,10068,   85
  348,20240117,   23,  -18, 9931,   86
  348,20240118,   23,  -13,10033,   90
  348,20240119,   44,    1,10202,   89
  348,20240120,   56,   -7,10265,   84
  348,20240121,   90,   37,10160,   78
  348,20240122,  108,   94,10077,   83
  348,20240123,   88,   80,10193,   86
  348,20240124,   98,   97,10207,   79
  348,20240125,   35,   61,10267,   96
  348,20240126,   74,   74,10258,   84
  348,20240127,   32,   28,10348,   90
  348,20240128,   39,   38,10271,   77
  348,20240129,   33,   62,10256,   86
  348,20240130,   48,   78,10279,   91
  348,20240131,   53,   65,10301,   85
  348,20240201,   40,   57,10303,   88
  348,20240202,   80,   74,10272,   93
  348,20240203,   66,   99,10249,   93
  348,20240204,   78,  105,10211,   91
  348,20240205,   99,   94,10178,   86
  348,20240206,  123,  106,10078,   86
  348,20240207,   19,   45,10053,   87
  348,20240208,   35,   37, 9961,   95
  348,20240209,   54,  107, 9836,   90
  348,20240210,   29,  105, 9861,   91
  348,20240211,   31,   84, 9908,   95
  348,20240212,   35,   60,10052,   91
  348,20240213,   54,   64,10149,   88
  348,20240214,   75,  113,10144,   96
  348,20240215,   44,  127,10124,   89
  348,20240216,   42,  108,10145,   90
  348,20240217,   30,  102,10301,   91
  348,20240218,   72,   95,10241,   92
  348,20240219,   46,   86,10266,   91
  348,20240220,   58,   85,10256,   89
  348,20240221,   74,   93,10100,   90
  348,20240222,   79,   97, 9860,   92
  348,20240223,   78,   58, 9901,   85
  348,20240224,   48,   49, 9977,   88
  348,20240225,   40,   65, 9996,   86
  348,20240226,   64,   53,10069,   84
  348,20240227,   28,   46,10188,   84
  348,20240228,   40,   63,10193,   91
  348,20240229,   61,   81,10074,   96
  348,20240301,   63,   77,10000,   83
  348,20240302,   55,   92, 9988,   74
  348,20240303,   35,  105,10018,   79
  348,20240304,   25,   78,10116,   80
  348,20240305,   18,   69,10146,   90
  348,20240306,   19,   71,10227,   88
  348,20240307,   45,   55,10226,   81
  348,20240308,   57,   55,10109,   70
  348,20240309,   53,   83,10004,   70
  348,20240310,   36,   93, 9967,   72
  348,20240311,   19,   70,10029,   96
  348,20240312,   43,   84,10126,   92
  348,20240313,   52,  109,10140,   91
  348,20240314,   45,  123,10102,   81
  348,20240315,   74,  126,10071,   83
  348,20240316,   37,   76,10197,   82
  348,20240317,   43,   99,10188,   85
  348,20240318,   32,  107,10160,   86
  348,20240319,   35,  114,10179,   83
  348,20240320,   13,  117,10191,   85
  348,20240321,   37,   94,10236,   88
  348,20240322,   45,   93,10159,   93
  348,20240323,   61,   66,10081,   79
  348,20240324,   76,   64,10050,   86
  348,20240325,   34,   72,10040,   75
  348,20240326,   38,   87, 9904,   73
  348,20240327,   43,   97, 9860,   77
  348,20240328,   66,   89, 9858,   73
  348,20240329,   57,  107, 9930,   75
  348,20240330,   25,   84, 9971,   95
  348,20240331,   33,  106, 9961,   90
  348,20240401,   40,   95, 9966,   87
  348,20240402,   57,   93,10051,   89
  348,20240403,   59,  110,10038,   89
  348,20240404,   76,  119,10051,   84
  348,20240405,   53,  132,10082,   88
  348,20240406,   47,  170,10084,   74
  348,20240407,   60,  158,10119,   71
  348,20240408,   30,  152,10072,   84
  348,20240409,   83,  112,10101,   79
  348,20240410,   50,  112,10269,   69
  348,20240411,   51,  131,10302,   89
  348,20240412,   66,  156,10290,   80
  348,20240413,   56,  161,10223,   77
  348,20240414,   33,  111,10210,   72
  348,20240415,   73,   80,10052,   82
  348,20240416,   70,   75,10051,   86
  348,20240417,   27,   54,10125,   86
  348,20240418,   38,   72,10187,   79
  348,20240419,   81,   85,10115,   85
  348,20240420,   63,   72,10220,   77
  348,20240421,   47,   61,10253,   76
  348,20240422,   33,   55,10252,   71
  348,20240423,   30,   55,10194,   75
  348,20240424,   50,   59,10101,   81
  348,20240425,   40,   62,10043,   85
  348,20240426,   27,   87,10039,   77
  348,20240427,   35,  119,10045,   81
  348,20240428,   67,  118,10082,   76
  348,20240429,   31,  132,10185,   74
  348,20240430,   28,  165,10147,   77
  348,20240501,   37,  184,10060,   81
  348,20240502,   44,  175,10002,   78
  348,20240503,   55,  114,10091,   91
  348,20240504,   28,  115,10126,   87
  348,20240505,   23,  129,10090,   79
  348,20240506,   25,  149,10090,   75
  348,20240507,   36,  143,10201,   74
  348,20240508,   27,  123,10277,   86
  348,20240509,   15,  132,10270,   82
  348,20240510,   22,  153,10240,   79
  348,20240511,   31,  174,10217,   70
  348,20240512,   42,  198,10147,   60
  348,20240513,   31,  193,10096,   79
  348,20240514,   40,  195,10047,   77
  348,20240515,   19,  164,10062,   92
  348,20240516,   25,  162,10049,   90
  348,20240517,   41,  146,10085,   94
  348,20240518,   20,  165,10106,   83
  348,20240519,   31,  166,10112,   80
  348,20240520,   32,  152,10111,   92
  348,20240521,   34,  172,10073,   85
  348,20240522,   50,  153,10080,   84
  348,20240523,   39,  154,10145,   83
  348,20240524,   23,  144,10183,   93
  348,20240525,   26,  151,10163,   89
  348,20240526,   35,  156,10146,   85
  348,20240527,   30,  142,10167,   82
  348,20240528,   50,  140,10151,   87
  348,20240529,   50,  149,10081,   87
  348,20240530,   40,  144,10071,   86
  348,20240531,   36,  154,10123,   84
  348,20240601,   56,  150,10186,   93
  348,20240602,   47,  140,10234,   75
  348,20240603,   18,  139,10202,   83
  348,20240604,   41,  167,10116,   83
  348,20240605,   39,  126,10133,   72
  348,20240606,   28,  127,10173,   72
  348,20240607,   35,  137,10178,   74
  348,20240608,   44,  132,10125,   83
  348,20240609,   41,  128,10107,   74
  348,20240610,   49,  114,10064,   90
  348,20240611,   44,  118,10159,   79
  348,20240612,   37,  115,10198,   80
  348,20240613,   35,  146,10148,   72
  348,20240614,   43,  149,10050,   85
  348,20240615,   73,  143,10026,   81
  348,20240616,   51,  147,10054,   84
  348,20240617,   38,  166,10114,   74
  348,20240618,   15,  156,10139,   91
  348,20240619,   33,  157,10196,   78
  348,20240620,   28,  163,10192,   79
  348,20240621,   32,  159,10126,   91
  348,20240622,   36,  164,10135,   81
  348,20240623,   24,  183,10196,   77
  348,20240624,   14,  204,10198,   70
  348,20240625,   30,  237,10153,   64
  348,20240626,   23,  247,10107,   64
  348,20240627,   41,  226,10088,   69
  348,20240628,   45,  170,10158,   73
  348,20240629,   18,  185,10133,   75
  348,20240630,   39,  175,10105,   79
  348,20240701,   41,  159,10157,   74
  348,20240702,   43,  148,10148,   81
  348,20240703,   39,  136,10091,   86
  348,20240704,   64,  160,10076,   69
  348,20240705,   60,  159,10078,   86
  348,20240706,   73,  161,10027,   78
  348,20240707,   44,  145,10122,   83
  348,20240708,   29,  171,10170,   74
  348,20240709,   32,  205,10128,   76
  348,20240710,   45,  186,10145,   84
  348,20240711,   36,  168,10172,   79
  348,20240712,   40,  145,10130,   92
  348,20240713,   50,  145,10116,   86
  348,20240714,   50,  163,10122,   76
  348,20240715,   23,  193,10101,   74
  348,20240716,   61,  177,10103,   84
  348,20240717,   29,  180,10203,   81
  348,20240718,   17,  207,10219,   73
  348,20240719,   23,  231,10176,   69
  348,20240720,   25,  236,10087,   70
  348,20240721,   28,  196,10093,   87
  348,20240722,   37,  188,10163,   80
  348,20240723,   44,  188,10168,   85
  348,20240724,   27,  177,10206,   74
  348,20240725,   35,  189,10130,   81
  348,20240726,   35,  187,10109,   82
  348,20240727,   21,  177,10147,   80
  348,20240728,   26,  184,10249,   72
  348,20240729,   28,  209,10224,   66
  348,20240730,   19,  231,10165,   67
  348,20240731,   28,  215,10149,   70
  348,20240801,   22,  198,10126,   82
  348,20240802,   15,  205,10123,   77
  348,20240803,   41,  204,10115,   82
  348,20240804,   21,  180,10150,   74
  348,20240805,   28,  196,10140,   71
  348,20240806,   33,  220,10104,   70
  348,20240807,   34,  193,10125,   72
  348,20240808,   42,  202,10151,   70
  348,20240809,   59,  201,10141,   80
  348,20240810,   37,  199,10198,   76
  348,20240811,   18,  217,10206,   71
  348,20240812,   35,  247,10111,   68
  348,20240813,   25,  234,10092,   81
  348,20240814,   22,  205,10123,   90
  348,20240815,   44,  205,10155,   80
  348,20240816,   34,  195,10143,   90
  348,20240817,   18,  189,10130,   71
  348,20240818,   24,  174,10133,   77
  348,20240819,   27,  175,10171,   76
  348,20240820,   39,  175,10109,   85
  348,20240821,   48,  155,10160,   73
  348,20240822,   60,  182,10094,   70
  348,20240823,   64,  189,10063,   76
  348,20240824,   52,  190,10063,   86
  348,20240825,   43,  157,10190,   78
  348,20240826,   41,  166,10213,   80
  348,20240827,   22,  184,10204,   74
  348,20240828,   22,  208,10146,   79
  348,20240829,   27,  192,10172,   84
  348,20240830,   28,  180,10228,   73
  348,20240831,   48,  189,10224,   71
  348,20240901,   39,  223,10149,   74
  348,20240902,   23,  224,10120,   81
  348,20240903,   21,  197,10140,   91
  348,20240904,   22,  183,10159,   90
  348,20240905,   37,  219,10105,   77
  348,20240906,   31,  208,10103,   78
  348,20240907,   25,  214,10106,   80
  348,20240908,   43,  185,10073,   78
  348,20240909,   35,  164,10060,   82
  348,20240910,   68,  142,10070,   88
  348,20240911,   45,  109,10059,   84
  348,20240912,   28,  103,10134,   84
  348,20240913,   30,  108,10254,   81
  348,20240914,   15,  114,10305,   80
  348,20240915,   23,  133,10267,   86
  348,20240916,   30,  141,10264,   88
  348,20240917,   39,  162,10292,   84
  348,20240918,   38,  173,10276,   84
  348,20240919,   38,  176,10245,   85
  348,20240920,   41,  181,10215,   74
  348,20240921,   25,  180,10193,   76
  348,20240922,   21,  180,10139,   83
  348,20240923,   37,  169,10069,   85
  348,20240924,   40,  145,10027,   89
  348,20240925,   42,  151,10005,   86
  348,20240926,   66,  156, 9893,   87
  348,20240927,   80,  121, 9979,   84
  348,20240928,   28,  100,10209,   85
  348,20240929,   30,  100,10244,   81
  348,20240930,   64,  122,10080,   88
  348,20241001,   57,  130,10050,   93
  348,20241002,   33,  113,10128,   88
  348,20241003,   32,   97,10205,   79
  348,20241004,   18,   92,10220,   83
  348,20241005,   22,   95,10179,   81
  348,20241006,   46,  112,10057,   83
  348,20241007,   45,  155,10004,   82
  348,20241008,   50,  159, 9971,   84
  348,20241009,   39,  139, 9886,   91
  348,20241010,   40,  116,10008,   84
  348,20241011,   23,   82,10163,   87
  348,20241012,   43,   93,10095,   88
  348,20241013,   50,   98,10156,   79
  348,20241014,   16,   74,10183,   91
  348,20241015,   41,  100,10181,   88
  348,20241016,   53,  158,10090,   84
  348,20241017,   37,  168,10107,   90
  348,20241018,   18,  152,10139,   96
  348,20241019,   36,  146,10147,   91
  348,20241020,   63,  154,10159,   87
  348,20241021,   38,  136,10217,   91
  348,20241022,   38,  114,10288,   89
  348,20241023,   22,  111,10332,   96
  348,20241024,   33,  106,10235,   90
  348,20241025,   26,  140,10172,   92
  348,20241026,   22,  145,10159,   92
  348,20241027,   26,  123,10212,   90
  348,20241028,   50,  121,10228,   93
  348,20241029,   38,  133,10243,   98
  348,20241030,   10,  129,10282,   95
  348,20241031,   15,  117,10272,   92
  348,20241101,   33,  103,10248,   98
  348,20241102,   24,  103,10312,   85
  348,20241103,   15,   58,10301,   93
  348,20241104,   28,   77,10270,   88
  348,20241105,   23,   69,10241,   93
  348,20241106,   20,   85,10308,   94
  348,20241107,   31,   52,10329,   97
  348,20241108,   34,   50,10278,   89
  348,20241109,   20,   68,10253,   96
  348,20241110,   23,   88,10277,   96
  348,20241111,   49,  102,10291,   87
  348,20241112,   37,   81,10329,   87
  348,20241113,   17,   81,10324,   94
  348,20241114,   24,   97,10288,   91
  348,20241115,   25,   89,10265,   94
  348,20241116,   56,   85,10169,   89
  348,20241117,   49,   75,10105,   82
  348,20241118,   31,   53,10091,   88
  348,20241119,   36,   36, 9943,   94
  348,20241120,   43,   26,10011,   90
  348,20241121,   32,    5, 9982,   89
  348,20241122,   58,   36,10035,   84
  348,20241123,   74,   46,10104,   87
  348,20241124,   93,  139,10033,   70
  348,20241125,   67,  114,10036,   83
  348,20241126,   45,   62,10165,   93
  348,20241127,   76,   80,10120,   91
  348,20241128,   29,   58,10262,   83
  348,20241129,   27,   28,10311,   91
  348,20241130,   35,   39,10269,   86
  348,20241201,   43,   60,10188,   83
  348,20241202,   54,   94,10118,   94
  348,20241203,   32,   48,10197,   87
  348,20241204,   28,   39,10251,   93
  348,20241205,   80,   71,10103,   94
  348,20241206,   81,   77,10095,   83
  348,20241207,   80,   76, 9933,   91
  348,20241208,   49,   66,10102,   91
  348,20241209,   62,   62,10274,   83
  348,20241210,   51,   51,10311,   84
  348,20241211,   29,   34,10322,   87
  348,20241212,   19,   33,10316,   97
  348,20241213,   34,   17,10269,   88
  348,20241214,   49,   37,10195,   93
  348,20241215,   63,   78,10250,   95
  348,20241216,   68,   95,10290,   91
  348,20241217,   50,   78,10253,   93
  348,20241218,   83,  105,10094,   89
  348,20241219,   74,   78,10021,   87
  348,20241220,   53,   56,10172,   88
  348,20241221,   75,   81,10090,   92
  348,20241222,   66,   53, 9998,   81
  348,20241223,   50,   58,10160,   82
  348,20241224,   37,   55,10258,   97
  348,20241225,   30,   87,10336,   99
  348,20241226,   22,   64,10362,   99
  348,20241227,   18,   26,10337,   99
  348,20241228,   26,   15,10298,   98
  348,20241229,   50,   39,10289,   98
  348,20241230,   61,   67,10276,   93
  348,20241231,   83,   45,10225,   92
  348,20250101,  113,   77,10090,   85
  348,20250102,   30,   29,10142,   90
  348,20250103,   45,   22,10189,   88
  348,20250104,   32,   18,10167,   94
  348,20250105,   68,   56, 9936,   95
  348,20250106,  104,   83, 9847,   85
  348,20250107,   72,   33, 9975,   89
  348,20250108,   33,   20,10014,   91
  348,20250109,   33,   19,10044,   87
  348,20250110,   34,   17,10180,   89
  348,20250111,   19,    3,10279,   92
  348,20250112,   13,   25,10393,   88
  348,20250113,   23,   12,10407,   87
  348,20250114,   38,   24,10341,   91
  348,20250115,   16,   65,10340,   99
  348,20250116,   28,   33,10367,   99
  348,20250117,   21,    3,10372,   99
  348,20250118,   26,   -8,10312,   99
  348,20250119,   15,   -8,10232,   98
  348,20250120,   30,   -2,10195,   96
  348,20250121,   34,   -4,10158,   99
  348,20250122,   27,   21,10038,   96
  348,20250123,   62,   54,10033,   89
  348,20250124,   71,   74,10009,   90
  348,20250125,   22,   48,10046,   94
  348,20250126,   51,   38,10025,   89
  348,20250127,   79,   87, 9882,   80
  348,20250128,   72,   76, 9895,   85
  348,20250129,   55,   68,10024,   90
  348,20250130,   24,   47,10168,   92
  348,20250131,   26,   17,10278,   94
  348,20250201,   21,   10,10313,   86
  348,20250202,   23,    3,10256,   86
  348,20250203,   25,    8,10267,   91
  348,20250204,   45,   23,10269,   91
  348,20250205,   33,   42,10373,   97
  348,20250206,   30,   37,10413,   90
  348,20250207,   72,   35,10278,   75
  348,20250208,   40,   41,10216,   78
  348,20250209,   27,   31,10283,   83
  348,20250210,   57,   18,10238,   84
  348,20250211,   43,   30,10172,   95
  348,20250212,   21,   39,10179,   96
  348,20250213,   35,    9,10222,   88
  348,20250214,   17,    4,10279,   84
  348,20250215,   24,   17,10239,   77
  348,20250216,   45,    7,10230,   73
  348,20250217,   30,  -13,10249,   75
  348,20250218,   47,   -8,10251,   67
  348,20250219,   52,   13,10213,   60
  348,20250220,   45,   71,10196,   86
  348,20250221,   48,  126,10160,   79
  348,20250222,   47,   98,10151,   92
  348,20250223,   54,  103,10247,   83
  348,20250224,   69,  106,10151,   82
  348,20250225,   35,   85,10135,   92
  348,20250226,   45,   68,10145,   84
  348,20250227,   47,   57,10152,   91
  348,20250228,   39,   48,10266,   87
  348,20250301,   20,   33,10340,   89
  348,20250302,    9,   21,10345,   88
  348,20250303,   11,   24,10297,   85
  348,20250304,   11,   29,10265,   82
  348,20250305,   23,   59,10228,   78
  348,20250306,   30,   87,10173,   67
  348,20250307,   32,  109,10159,   65
  348,20250308,   35,  120,10121,   52
  348,20250309,   30,  110,10053,   60
  348,20250310,   27,   84,10025,   75
  348,20250311,   41,   50,10038,   83
  348,20250312,   31,   37,10007,   85
  348,20250313,   25,   27,10011,   86
  348,20250314,   29,   21,10106,   77
  348,20250315,   42,   31,10202,   70
  348,20250316,   37,   42,10237,   75
  348,20250317,   39,   58,10288,   62
  348,20250318,   45,   53,10275,   45
  348,20250319,   29,   84,10236,   56
  348,20250320,   20,  108,10211,   65
  348,20250321,   50,  149,10120,   53
  348,20250322,   40,  142,10033,   61
  348,20250323,   28,  131,10044,   73
  348,20250324,   35,   85,10157,   88
  348,20250325,   34,   81,10209,   86
  348,20250326,   29,   76,10246,   84
  348,20250327,   16,   72,10206,   82
  348,20250328,   36,   74,10126,   90
  348,20250329,   38,   72,10192,   80
  348,20250330,   83,   98,10177,   75
  348,20250331,   38,   81,10276,   76
  348,20250401,   41,   87,10276,   67
  348,20250402,   57,  121,10236,   55
  348,20250403,   47,  144,10224,   53
  348,20250404,   35,  137,10199,   59
  348,20250405,   48,  106,10199,   57
  348,20250406,   49,   79,10251,   47
  348,20250407,   33,   77,10266,   59
  348,20250408,   35,   82,10271,   67
  348,20250409,   41,   75,10273,   78
  348,20250410,   37,   86,10282,   79
  348,20250411,   30,   99,10214,   82
  348,20250412,   40,  153,10087,   61
  348,20250413,   53,  131,10040,   81
  348,20250414,   31,  127,10070,   71
  348,20250415,   39,  142, 9988,   80
  348,20250416,   25,  106,10087,   81
  348,20250417,   18,  102,10132,   79
  348,20250418,   20,  106,10143,   74
  348,20250419,   38,  100,10098,   74
  348,20250420,   28,  105,10074,   77
  348,20250421,   18,  120,10102,   91
  348,20250422,   31,  121,10168,   83
  348,20250423,   24,  119,10146,   89
  348,20250424,   43,  113,10182,   93
  348,20250425,   30,  102,10227,   83
  348,20250426,   28,  114,10228,   80
  348,20250427,   23,  138,10251,   67
  348,20250428,   20,  137,10271,   69
  348,20250429,   25,  152,10264,   74
  348,20250430,   21,  174,10228,   71
  348,20250501,   17,  192,10176,   68
  348,20250502,   29,  180,10143,   72
  348,20250503,   39,  123,10122,   70
  348,20250504,   45,   95,10151,   72
  348,20250505,   43,   91,10191,   67
  348,20250506,   43,   98,10223,   74
  348,20250507,   38,  107,10211,   76
  348,20250508,   31,  130,10189,   57
  348,20250509,   35,  140,10210,   51
  348,20250510,   35,  160,10194,   50
  348,20250511,   39,  186,10135,   47
  348,20250512,   44,  187,10133,   46
  348,20250513,   39,  169,10179,   46
  348,20250514,   44,  140,10193,   65
  348,20250515,   53,  136,10210,   64
  348,20250516,   42,  116,10219,   76
  348,20250517,   43,  127,10194,   77
  348,20250518,   35,  133,10180,   75
  348,20250519,   30,  149,10198,   66
  348,20250520,   37,  148,10185,   67
  348,20250521,   39,  121,10150,   76
  348,20250522,   49,  106,10165,   66
  348,20250523,   49,  103,10177,   69
  348,20250524,   53,  128,10124,   86
  348,20250525,   63,  155,10096,   82
  348,20250526,   64,  151,10157,   66
  348,20250527,   82,  144,10128,   88
  348,20250528,   58,  145,10152,   83
  348,20250529,   50,  151,10199,   88
  348,20250530,   46,  168,10195,   85
  348,20250531,   18,  192,10166,   77
  348,20250601,   54,  163,10137,   74
  348,20250602,   37,  143,10158,   76
  348,20250603,   53,  164,10098,   66
  348,20250604,   47,  150,10072,   73
  348,20250605,   56,  151,10061,   82
  348,20250606,   65,  155,10073,   78
  348,20250607,   54,  141,10068,   83
  348,20250608,   63,  127,10140,   81
  348,20250609,   42,  146,10212,   78
  348,20250610,   57,  139,10167,   84
  348,20250611,   23,  150,10219,   71
  348,20250612,   49,  205,10167,   59
  348,20250613,   27,  257,10179,   57
  348,20250614,   34,  218,10172,   70
  348,20250615,   39,  176,10219,   71
  348,20250616,   29,  174,10270,   78
  348,20250617,   26,  185,10254,   73
  348,20250618,   30,  190,10240,   76
  348,20250619,   22,  188,10266,   71
  348,20250620,   28,  200,10255,   53
  348,20250621,   30,  234,10198,   47
  348,20250622,   51,  220,10133,   62
  348,20250623,   75,  181,10118,   64
  348,20250624,   66,  177,10120,   77
  348,20250625,   36,  205,10122,   77
  348,20250626,   61,  197,10124,   81
  348,20250627,   42,  186,10211,   76
  348,20250628,   56,  215,10234,   78
  348,20250629,   32,  215,10241,   74
  348,20250630,   28,  236,10195,   61
  348,20250701,   23,  274,10145,   55
  348,20250702,   32,  221,10155,   75
  348,20250703,   38,  167,10265,   70
  348,20250704,   36,  183,10254,   63
  348,20250705,   57,  182,10147,   76
  348,20250706,   37,  173,10060,   91
  348,20250707,   51,  159,10071,   77
  348,20250708,   42,  151,10150,   79
  348,20250709,   26,  179,10212,   69
  348,20250710,   20,  187,10223,   75
  348,20250711,   30,  192,10202,   79
  348,20250712,   35,  199,10151,   77
  348,20250713,   18,  198,10115,   83
  348,20250714,   40,  206,10141,   74
  348,20250715,   50,  185,10165,   68
  348,20250716,   47,  170,10140,   83
  348,20250717,   21,  180,10175,   74
  348,20250718,   16,  208,10141,   72
  348,20250719,   38,  224,10069,   74
  348,20250720,   30,  204,10037,   84
  348,20250721,   41,  187,10028,   81
  348,20250722,   51,  194,10087,   81
  348,20250723,   36,  192,10119,   84
  348,20250724,   22,  186,10145,   82
  348,20250725,   25,  186,10176,   86
  348,20250726,   38,  196,10157,   81
  348,20250727,   28,  174,10148,   81
  348,20250728,   37,  170,10177,   80
  348,20250729,   25,  177,10172,   73
  348,20250730,   39,  174,10165,   73
  348,20250731,   36,  179,10139,   85
  348,20250801,   45,  171,10120,   83
  348,20250802,   44,  164,10144,   85
  348,20250803,   50,  184,10167,   78
  348,20250804,   56,  196,10151,   83
  348,20250805,   45,  162,10195,   75
  348,20250806,   28,  166,10230,   75
  348,20250807,   35,  188,10162,   73
  348,20250808,   31,  191,10182,   79
  348,20250809,   27,  170,10210,   80
  348,20250810,   23,  185,10272,   73
  348,20250811,   20,  206,10231,   68
  348,20250812,   25,  233,10153,   64
  348,20250813,   18,  229,10152,   81
  348,20250814,   31,  232,10186,   78
  348,20250815,   32,  210,10236,   79
  348,20250816,   34,  175,10255,   80
  348,20250817,   24,  162,10232,   85
  348,20250818,   27,  190,10202,   78
  348,20250819,   39,  195,10151,   73
  348,20250820,   33,  184,10133,   68
  348,20250821,   43,  160,10150,   74
  348,20250822,   30,  152,10195,   75
  348,20250823,   24,  148,10201,   75
  348,20250824,   15,  141,10214,   76
  348,20250825,   18,  167,10181,   67
  348,20250826,   34,  198,10094,   64
  348,20250827,   29,  189,10074,   76
  348,20250828,   32,  171,10034,   79
  348,20250829,   45,  167,10000,   77
  348,20250830,   51,  184,10056,   74
  348,20250831,   36,  187,10068,   85
  348,20250901,   36,  181,10063,   76
  348,20250902,   53,  174,10070,   75
  348,20250903,   74,  188,10034,   83
  348,20250904,   54,  173,10097,   80
  348,20250905,   31,  154,10198,   85
  348,20250906,   28,  168,10218,   74
  348,20250907,   45,  204,10138,   62
  348,20250908,   29,  186,10164,   79
  348,20250909,   19,  134,10162,   88
  348,20250910,   40,  156,10070,   80
  348,20250911,   62,  155,10045,   82
  348,20250912,   68,  147,10122,   74
  348,20250913,   50,  135,10115,   87
  348,20250914,   48,  150,10109,   82
  348,20250915,  106,  169,10055,   75
  348,20250916,   73,  151,10145,   78
  348,20250917,   58,  153,10184,   87
  348,20250918,   61,  186,10203,   85
  348,20250919,   34,  192,10198,   77
  348,20250920,   44,  193,10117,   84
  348,20250921,   50,  132,10151,   79
  348,20250922,   37,  112,10236,   77
  348,20250923,   30,  117,10257,   81
  348,20250924,   44,  118,10256,   67
  348,20250925,   52,  120,10233,   64
  348,20250926,   28,  116,10225,   77
  348,20250927,   17,  127,10216,   88
  348,20250928,   17,  127,10224,   84
  348,20250929,   21,  124,10233,   85
  348,20250930,   16,  127,10254,   86
  348,20251001,   23,  113,10288,   74
  348,20251002,   35,  124,10257,   71
  348,20251003,   62,  117,10139,   80
  348,20251004,   95,  135, 9981,   79
  348,20251005,   63,  116,10113,   79
  348,20251006,   36,  137,10223,   89
  348,20251007,   39,  146,10241,   93
  348,20251008,   28,  142,10225,   93
  348,20251009,   21,  131,10264,   84
  348,20251010,   24,  145,10325,   86
  348,20251011,   18,  143,10337,   84
  348,20251012,   22,  142,10308,   89
  348,20251013,   21,  134,10286,   91
  348,20251014,   20,  132,10275,   89
  348,20251015,   19,  122,10273,   95
  348,20251016,   21,  122,10258,   91
  348,20251017,   17,  119,10253,   88
  348,20251018,   28,  105,10252,   76
  348,20251019,   47,  110,10102,   80
  348,20251020,   53,  145, 9949,   88
  348,20251021,   70,  135, 9925,   90
  348,20251022,   38,  125, 9962,   90
  348,20251023,   83,  119, 9811,   87
  348,20251024,   93,   98, 9970,   77
  348,20251025,   67,   89, 9977,   86
  348,20251026,   78,   84,10024,   81
  348,20251027,   68,   93,10010,   83
  348,20251028,   64,  110,10053,   87
  348,20251029,   45,  114,10015,   91
  348,20251030,   44,   93,10080,   85
  348,20251031,   48,  103,10091,   86
  348,20251101,   54,  122,10062,   89
  348,20251102,   48,   98,10095,   89
  348,20251103,   64,  101,10160,   91
  348,20251104,   56,  134,10162,   80
  348,20251105,   44,  130,10133,   74
  348,20251106,   31,  103,10086,   82
  348,20251107,   23,  103,10095,   92
  348,20251108,   18,  102,10135,   94
  348,20251109,   26,  105,10166,   92
  348,20251110,   48,   92,10111,   89
  348,20251111,   52,   99,10109,   91
  348,20251112,   54,  117,10083,   80
  348,20251113,   40,  128,10087,   88
  348,20251114,   32,  117,10059,   97
  348,20251115,   35,   85,10086,   97
  348,20251116,   30,   55,10095,   92
  348,20251117,   39,   48,10162,   84
  348,20251118,   47,   48,10152,   88
  348,20251119,   50,   48,10026,   91
  348,20251120,   24,   21,10098,   93
  348,20251121,   20,   18,10239,   90
  348,20251122,   53,   13,10224,   81
  348,20251123,   69,   23,10033,   90
  348,20251124,   28,   50, 9942,   93
  348,20251125,   22,   29,10068,   93
  348,20251126,   23,   34,10204,   93
  348,20251127,   68,   59,10166,   96
  348,20251128,   57,   90,10128,   97
  348,20251129,   53,   91,10064,   92
  348,20251130,   47,   60,10108,   86
  348,20251201,   70,   54,10106,   80
  348,20251202,   51,   74,10073,   75
  348,20251203,   25,   70,10108,   92
  348,20251204,   44,   67,10050,   88
  348,20251205,   35,   38,10085,   96
  348,20251206,   72,   83,10007,   92
  348,20251207,   64,  106,10042,   93
  348,20251208,   55,  118,     ,   92
  348,20251209,   51,  123,     ,   87
  348,20251210,   57,  113,     ,   89
  348,20251211,   39,   74,10219,   96
  348,20251212,   34,   80,10207,   94
  348,20251213,   28,   66,10269,   96
  348,20251214,   49,   67,10220,   96
  348,20251215,   49,   67,10125,   90
  348,20251216,   30,   85,10118,   87
  348,20251217,   37,   79,10164,   94
  348,20251218,   70,  101,10119,   81
  348,20251219,   41,   85,10161,   94
  348,20251220,   28,   48,10158,   98
  348,20251221,   33,   82,10108,   92
  348,20251222,   39,   51,10114,   86
  348,20251223,   59,   47,10199,   77
  348,20251224,   66,    8,10321,   73
  348,20251225,   58,  -24,10308,   65
  348,20251226,   39,  -19,10315,   75
  348,20251227,   26,   15,10341,   85
  348,20251228,   18,   21,10318,   88
  348,20251229,   19,   19,10269,   94
  348,20251230,   27,   13,10302,   86
  348,20251231,   41,   26,10236,   89
  348,20260101,   79,   41,10037,   80
  348,20260102,   63,   15, 9996,   89
  348,20260103,   45,    7,10030,   92
  348,20260104,   54,   -4,10084,   91
  348,20260105,   44,  -10,10097,   94
  348,20260106,   38,  -29,10144,   93
  348,20260107,   81,    3,10046,   93
  348,20260108,   46,   14,10014,   94
  348,20260109,   53,   16, 9855,   95
  348,20260110,   39,  -25,10120,   79
  348,20260111,   49,  -25,10208,   86
  348,20260112,   56,   44,10070,   97
  348,20260113,   40,   79,10075,   96
  348,20260114,   25,   61,10120,   93
  348,20260115,   53,   86,10068,   91
  348,20260116,   43,   83,10111,   88
  348,20260117,   27,   77,10181,   91
  348,20260118,   26,   35,10200,   92
  348,20260119,   29,   25,10184,   92
  348,20260120,   34,    9,10153,   96
  348,20260121,   49,   43,10015,   82
  348,20260122,   47,   29, 9951,   73
  348,20260123,   43,   49,     ,   85
  348,20260124,   42,   27,     ,   83
  348,20260125,   38,  -10, 9987,   86
  348,20260126,   21,    2,10025,   93
  348,20260127,   46,   20, 9952,   93
  348,20260128,   25,   33, 9960,   95
  348,20260129,   23,    1, 9997,   93
  348,20260130,   45,   23, 9965,   92
  348,20260131,   36,   56,10013,   95
  348,20260201,   34,   58,10046,   93
  348,20260202,   53,   43,10008,   84
  348,20260203,   58,    6, 9970,   88
  348,20260204,   42,   62, 9962,   89
  348,20260205,   54,   18, 9903,   86
  348,20260206,   42,   46, 9908,   96
  348,20260207,   36,   73,10019,   90
  348,20260208,   38,   51,10077,   95
  348,20260209,   37,   32,10043,   94
  348,20260210,   36,   54, 9912,   96
  348,20260211,   38,   85, 9820,   97
  348,20260212,   45,   74, 9812,   95
  348,20260213,   38,   21, 9949,   85
  348,20260214,   42,   -3,10132,   78
  348,20260215,   53,   -3,10076,   87
  348,20260216,   40,   40, 9949,   94
  348,20260217,   60,   46,10085,   83
  348,20260218,   52,   16,10097,   77
  348,20260219,   68,   26,10034,   85
  348,20260220,   57,   59,10159,   89
  348,20260221,   63,   94,10178,   91
  348,20260222,   90,  103,10152,   96
